<?xml version="1.0" encoding="UTF-8" standalone="no" ?>
<gpx xmlns="http://www.topografix.com/GPX/1/1" xmlns:xsi="http://www.w3.org/2001/XMLSchema-instance" xsi:schemaLocation="http://www.topografix.com/GPX/1/1 http://www.topografix.com/GPX/1/1/gpx.xsd" version="1.1" creator="VisuGPX - https://www.visugpx.com">
  <metadata>
    <name>montbrand gps jour 1</name>
    <desc><![CDATA[Au départ du Forest des Bayles. voir aussi au départ de la Faurie.]]></desc>
  </metadata>
  <trk>
    <name><![CDATA[montbrand gps jour 1]]></name>
    <trkseg>
      <trkpt lat="44.54208" lon="5.73268">
        <ele>1323.61</ele>
        <time>2019-10-26T09:44:10Z</time>
      </trkpt>
      <trkpt lat="44.54199" lon="5.73237">
        <ele>1368.36</ele>
        <time>2019-10-26T09:44:35Z</time>
      </trkpt>
      <trkpt lat="44.54198" lon="5.73236">
        <ele>1368.21</ele>
        <time>2019-10-26T09:44:55Z</time>
      </trkpt>
      <trkpt lat="44.54195" lon="5.73238">
        <ele>1367.81</ele>
        <time>2019-10-26T09:45:16Z</time>
      </trkpt>
      <trkpt lat="44.54187" lon="5.73215">
        <ele>1368.28</ele>
        <time>2019-10-26T09:45:32Z</time>
      </trkpt>
      <trkpt lat="44.54173" lon="5.73189">
        <ele>1371.56</ele>
        <time>2019-10-26T09:45:52Z</time>
      </trkpt>
      <trkpt lat="44.54158" lon="5.73169">
        <ele>1375.12</ele>
        <time>2019-10-26T09:46:10Z</time>
      </trkpt>
      <trkpt lat="44.54143" lon="5.73151">
        <ele>1379.98</ele>
        <time>2019-10-26T09:46:27Z</time>
      </trkpt>
      <trkpt lat="44.54124" lon="5.73134">
        <ele>1383.22</ele>
        <time>2019-10-26T09:46:47Z</time>
      </trkpt>
      <trkpt lat="44.5412" lon="5.73127">
        <ele>1384.06</ele>
        <time>2019-10-26T09:46:53Z</time>
      </trkpt>
      <trkpt lat="44.5412" lon="5.73122">
        <ele>1383.89</ele>
        <time>2019-10-26T09:46:57Z</time>
      </trkpt>
      <trkpt lat="44.5412" lon="5.7312">
        <ele>1383.41</ele>
        <time>2019-10-26T09:46:59Z</time>
      </trkpt>
      <trkpt lat="44.54137" lon="5.73119">
        <ele>1383.22</ele>
        <time>2019-10-26T09:47:19Z</time>
      </trkpt>
      <trkpt lat="44.54159" lon="5.73107">
        <ele>1386.14</ele>
        <time>2019-10-26T09:47:40Z</time>
      </trkpt>
      <trkpt lat="44.5417" lon="5.73089">
        <ele>1387.77</ele>
        <time>2019-10-26T09:47:57Z</time>
      </trkpt>
      <trkpt lat="44.54176" lon="5.73069">
        <ele>1389.57</ele>
        <time>2019-10-26T09:48:10Z</time>
      </trkpt>
      <trkpt lat="44.5418" lon="5.7304">
        <ele>1391.66</ele>
        <time>2019-10-26T09:48:27Z</time>
      </trkpt>
      <trkpt lat="44.5418" lon="5.73007">
        <ele>1393.95</ele>
        <time>2019-10-26T09:48:45Z</time>
      </trkpt>
      <trkpt lat="44.54179" lon="5.7298">
        <ele>1397.68</ele>
        <time>2019-10-26T09:49:03Z</time>
      </trkpt>
      <trkpt lat="44.54162" lon="5.72955">
        <ele>1399.1</ele>
        <time>2019-10-26T09:49:23Z</time>
      </trkpt>
      <trkpt lat="44.54159" lon="5.72949">
        <ele>1399.63</ele>
        <time>2019-10-26T09:49:28Z</time>
      </trkpt>
      <trkpt lat="44.54153" lon="5.72924">
        <ele>1403.23</ele>
        <time>2019-10-26T09:49:45Z</time>
      </trkpt>
      <trkpt lat="44.5415" lon="5.729">
        <ele>1405.86</ele>
        <time>2019-10-26T09:50:00Z</time>
      </trkpt>
      <trkpt lat="44.54148" lon="5.72886">
        <ele>1405.93</ele>
        <time>2019-10-26T09:50:18Z</time>
      </trkpt>
      <trkpt lat="44.54147" lon="5.72882">
        <ele>1406.13</ele>
        <time>2019-10-26T09:50:40Z</time>
      </trkpt>
      <trkpt lat="44.54147" lon="5.72877">
        <ele>1406.97</ele>
        <time>2019-10-26T09:51:08Z</time>
      </trkpt>
      <trkpt lat="44.54146" lon="5.72875">
        <ele>1407.08</ele>
        <time>2019-10-26T09:51:10Z</time>
      </trkpt>
      <trkpt lat="44.54125" lon="5.72853">
        <ele>1408.37</ele>
        <time>2019-10-26T09:51:31Z</time>
      </trkpt>
      <trkpt lat="44.54116" lon="5.7283">
        <ele>1409.22</ele>
        <time>2019-10-26T09:51:48Z</time>
      </trkpt>
      <trkpt lat="44.54104" lon="5.72784">
        <ele>1413.09</ele>
        <time>2019-10-26T09:52:05Z</time>
      </trkpt>
      <trkpt lat="44.54102" lon="5.7277">
        <ele>1414.29</ele>
        <time>2019-10-26T09:52:08Z</time>
      </trkpt>
      <trkpt lat="44.54101" lon="5.72764">
        <ele>1414.49</ele>
        <time>2019-10-26T09:52:09Z</time>
      </trkpt>
      <trkpt lat="44.54087" lon="5.72707">
        <ele>1419.62</ele>
        <time>2019-10-26T09:52:19Z</time>
      </trkpt>
      <trkpt lat="44.54074" lon="5.72649">
        <ele>1422.59</ele>
        <time>2019-10-26T09:52:29Z</time>
      </trkpt>
      <trkpt lat="44.54069" lon="5.72607">
        <ele>1425.95</ele>
        <time>2019-10-26T09:52:36Z</time>
      </trkpt>
      <trkpt lat="44.54068" lon="5.72601">
        <ele>1426.62</ele>
        <time>2019-10-26T09:52:37Z</time>
      </trkpt>
      <trkpt lat="44.54062" lon="5.72552">
        <ele>1429.97</ele>
        <time>2019-10-26T09:52:46Z</time>
      </trkpt>
      <trkpt lat="44.54057" lon="5.72528">
        <ele>1430.74</ele>
        <time>2019-10-26T09:52:50Z</time>
      </trkpt>
      <trkpt lat="44.54053" lon="5.72515">
        <ele>1430.74</ele>
        <time>2019-10-26T09:52:52Z</time>
      </trkpt>
      <trkpt lat="44.54053" lon="5.72509">
        <ele>1431.11</ele>
        <time>2019-10-26T09:52:53Z</time>
      </trkpt>
      <trkpt lat="44.54052" lon="5.72502">
        <ele>1431.43</ele>
        <time>2019-10-26T09:52:54Z</time>
      </trkpt>
      <trkpt lat="44.54048" lon="5.72484">
        <ele>1431.41</ele>
        <time>2019-10-26T09:52:57Z</time>
      </trkpt>
      <trkpt lat="44.54048" lon="5.72478">
        <ele>1431.52</ele>
        <time>2019-10-26T09:52:58Z</time>
      </trkpt>
      <trkpt lat="44.54047" lon="5.72471">
        <ele>1431.42</ele>
        <time>2019-10-26T09:52:59Z</time>
      </trkpt>
      <trkpt lat="44.54048" lon="5.72465">
        <ele>1431.44</ele>
        <time>2019-10-26T09:53:00Z</time>
      </trkpt>
      <trkpt lat="44.54048" lon="5.72459">
        <ele>1431.48</ele>
        <time>2019-10-26T09:53:01Z</time>
      </trkpt>
      <trkpt lat="44.54049" lon="5.72453">
        <ele>1431.02</ele>
        <time>2019-10-26T09:53:02Z</time>
      </trkpt>
      <trkpt lat="44.5405" lon="5.72448">
        <ele>1430.79</ele>
        <time>2019-10-26T09:53:03Z</time>
      </trkpt>
      <trkpt lat="44.54055" lon="5.72422">
        <ele>1432.86</ele>
        <time>2019-10-26T09:53:07Z</time>
      </trkpt>
      <trkpt lat="44.54054" lon="5.72416">
        <ele>1433.59</ele>
        <time>2019-10-26T09:53:08Z</time>
      </trkpt>
      <trkpt lat="44.54053" lon="5.72409">
        <ele>1434.37</ele>
        <time>2019-10-26T09:53:09Z</time>
      </trkpt>
      <trkpt lat="44.5405" lon="5.72403">
        <ele>1435.05</ele>
        <time>2019-10-26T09:53:10Z</time>
      </trkpt>
      <trkpt lat="44.54048" lon="5.72398">
        <ele>1436.62</ele>
        <time>2019-10-26T09:53:11Z</time>
      </trkpt>
      <trkpt lat="44.54042" lon="5.72382">
        <ele>1439.24</ele>
        <time>2019-10-26T09:53:14Z</time>
      </trkpt>
      <trkpt lat="44.5404" lon="5.72376">
        <ele>1439.74</ele>
        <time>2019-10-26T09:53:15Z</time>
      </trkpt>
      <trkpt lat="44.54039" lon="5.7237">
        <ele>1439.77</ele>
        <time>2019-10-26T09:53:16Z</time>
      </trkpt>
      <trkpt lat="44.54039" lon="5.72364">
        <ele>1439.91</ele>
        <time>2019-10-26T09:53:17Z</time>
      </trkpt>
      <trkpt lat="44.54038" lon="5.72358">
        <ele>1439.93</ele>
        <time>2019-10-26T09:53:18Z</time>
      </trkpt>
      <trkpt lat="44.54037" lon="5.72311">
        <ele>1442.82</ele>
        <time>2019-10-26T09:53:29Z</time>
      </trkpt>
      <trkpt lat="44.54036" lon="5.72311">
        <ele>1443.41</ele>
        <time>2019-10-26T09:53:30Z</time>
      </trkpt>
      <trkpt lat="44.54035" lon="5.72311">
        <ele>1443.82</ele>
        <time>2019-10-26T09:53:31Z</time>
      </trkpt>
      <trkpt lat="44.54034" lon="5.72311">
        <ele>1444.2</ele>
        <time>2019-10-26T09:53:32Z</time>
      </trkpt>
      <trkpt lat="44.54033" lon="5.72311">
        <ele>1444.41</ele>
        <time>2019-10-26T09:53:33Z</time>
      </trkpt>
      <trkpt lat="44.54032" lon="5.72312">
        <ele>1444.82</ele>
        <time>2019-10-26T09:53:34Z</time>
      </trkpt>
      <trkpt lat="44.54031" lon="5.72314">
        <ele>1445.01</ele>
        <time>2019-10-26T09:53:35Z</time>
      </trkpt>
      <trkpt lat="44.54021" lon="5.72334">
        <ele>1447.96</ele>
        <time>2019-10-26T09:53:50Z</time>
      </trkpt>
      <trkpt lat="44.54019" lon="5.72338">
        <ele>1448.93</ele>
        <time>2019-10-26T09:53:54Z</time>
      </trkpt>
      <trkpt lat="44.54006" lon="5.72366">
        <ele>1453.99</ele>
        <time>2019-10-26T09:54:14Z</time>
      </trkpt>
      <trkpt lat="44.54006" lon="5.72369">
        <ele>1453.86</ele>
        <time>2019-10-26T09:54:16Z</time>
      </trkpt>
      <trkpt lat="44.54004" lon="5.72373">
        <ele>1453.99</ele>
        <time>2019-10-26T09:54:20Z</time>
      </trkpt>
      <trkpt lat="44.54004" lon="5.72375">
        <ele>1454.11</ele>
        <time>2019-10-26T09:54:21Z</time>
      </trkpt>
      <trkpt lat="44.54003" lon="5.72377">
        <ele>1454.19</ele>
        <time>2019-10-26T09:54:22Z</time>
      </trkpt>
      <trkpt lat="44.54002" lon="5.72378">
        <ele>1454.31</ele>
        <time>2019-10-26T09:54:23Z</time>
      </trkpt>
      <trkpt lat="44.54001" lon="5.7238">
        <ele>1454.43</ele>
        <time>2019-10-26T09:54:24Z</time>
      </trkpt>
      <trkpt lat="44.53997" lon="5.72393">
        <ele>1454.45</ele>
        <time>2019-10-26T09:54:36Z</time>
      </trkpt>
      <trkpt lat="44.53999" lon="5.724">
        <ele>1451.74</ele>
        <time>2019-10-26T09:54:54Z</time>
      </trkpt>
      <trkpt lat="44.53999" lon="5.724">
        <ele>1451.25</ele>
        <time>2019-10-26T09:55:00Z</time>
      </trkpt>
      <trkpt lat="44.53995" lon="5.72402">
        <ele>1451.18</ele>
        <time>2019-10-26T09:55:12Z</time>
      </trkpt>
      <trkpt lat="44.53987" lon="5.72424">
        <ele>1452.29</ele>
        <time>2019-10-26T09:55:29Z</time>
      </trkpt>
      <trkpt lat="44.53981" lon="5.72443">
        <ele>1455.14</ele>
        <time>2019-10-26T09:55:43Z</time>
      </trkpt>
      <trkpt lat="44.53976" lon="5.72465">
        <ele>1459.89</ele>
        <time>2019-10-26T09:55:57Z</time>
      </trkpt>
      <trkpt lat="44.53968" lon="5.7249">
        <ele>1464.72</ele>
        <time>2019-10-26T09:56:13Z</time>
      </trkpt>
      <trkpt lat="44.53959" lon="5.72518">
        <ele>1468.34</ele>
        <time>2019-10-26T09:56:31Z</time>
      </trkpt>
      <trkpt lat="44.53953" lon="5.72545">
        <ele>1471.16</ele>
        <time>2019-10-26T09:56:48Z</time>
      </trkpt>
      <trkpt lat="44.53947" lon="5.72573">
        <ele>1471.2</ele>
        <time>2019-10-26T09:57:03Z</time>
      </trkpt>
      <trkpt lat="44.53947" lon="5.72576">
        <ele>1470.62</ele>
        <time>2019-10-26T09:57:08Z</time>
      </trkpt>
      <trkpt lat="44.53947" lon="5.72563">
        <ele>1469.67</ele>
        <time>2019-10-26T09:57:23Z</time>
      </trkpt>
      <trkpt lat="44.53948" lon="5.72563">
        <ele>1469.21</ele>
        <time>2019-10-26T09:57:41Z</time>
      </trkpt>
      <trkpt lat="44.53948" lon="5.72564">
        <ele>1469.95</ele>
        <time>2019-10-26T09:58:21Z</time>
      </trkpt>
      <trkpt lat="44.53947" lon="5.72551">
        <ele>1469.24</ele>
        <time>2019-10-26T09:58:45Z</time>
      </trkpt>
      <trkpt lat="44.53947" lon="5.72516">
        <ele>1471.68</ele>
        <time>2019-10-26T09:59:04Z</time>
      </trkpt>
      <trkpt lat="44.53946" lon="5.72479">
        <ele>1475.79</ele>
        <time>2019-10-26T09:59:25Z</time>
      </trkpt>
      <trkpt lat="44.53947" lon="5.72443">
        <ele>1478.23</ele>
        <time>2019-10-26T09:59:46Z</time>
      </trkpt>
      <trkpt lat="44.53939" lon="5.72404">
        <ele>1479.36</ele>
        <time>2019-10-26T10:00:10Z</time>
      </trkpt>
      <trkpt lat="44.53937" lon="5.72398">
        <ele>1479.33</ele>
        <time>2019-10-26T10:00:15Z</time>
      </trkpt>
      <trkpt lat="44.5393" lon="5.7237">
        <ele>1480.47</ele>
        <time>2019-10-26T10:00:32Z</time>
      </trkpt>
      <trkpt lat="44.53926" lon="5.72337">
        <ele>1481.27</ele>
        <time>2019-10-26T10:00:52Z</time>
      </trkpt>
      <trkpt lat="44.53929" lon="5.723">
        <ele>1482.74</ele>
        <time>2019-10-26T10:01:13Z</time>
      </trkpt>
      <trkpt lat="44.53933" lon="5.72272">
        <ele>1486.84</ele>
        <time>2019-10-26T10:01:31Z</time>
      </trkpt>
      <trkpt lat="44.53932" lon="5.72242">
        <ele>1488.54</ele>
        <time>2019-10-26T10:01:47Z</time>
      </trkpt>
      <trkpt lat="44.5393" lon="5.7222">
        <ele>1490.18</ele>
        <time>2019-10-26T10:02:02Z</time>
      </trkpt>
      <trkpt lat="44.5393" lon="5.72203">
        <ele>1493.58</ele>
        <time>2019-10-26T10:02:16Z</time>
      </trkpt>
      <trkpt lat="44.53931" lon="5.72189">
        <ele>1493.03</ele>
        <time>2019-10-26T10:02:42Z</time>
      </trkpt>
      <trkpt lat="44.53928" lon="5.72153">
        <ele>1493.88</ele>
        <time>2019-10-26T10:03:02Z</time>
      </trkpt>
      <trkpt lat="44.53926" lon="5.7213">
        <ele>1495.64</ele>
        <time>2019-10-26T10:03:15Z</time>
      </trkpt>
      <trkpt lat="44.53927" lon="5.72122">
        <ele>1497.18</ele>
        <time>2019-10-26T10:03:20Z</time>
      </trkpt>
      <trkpt lat="44.53926" lon="5.72097">
        <ele>1500.69</ele>
        <time>2019-10-26T10:03:34Z</time>
      </trkpt>
      <trkpt lat="44.53925" lon="5.72088">
        <ele>1501.82</ele>
        <time>2019-10-26T10:03:39Z</time>
      </trkpt>
      <trkpt lat="44.53924" lon="5.72082">
        <ele>1502.95</ele>
        <time>2019-10-26T10:03:43Z</time>
      </trkpt>
      <trkpt lat="44.5392" lon="5.72058">
        <ele>1505.71</ele>
        <time>2019-10-26T10:03:57Z</time>
      </trkpt>
      <trkpt lat="44.53917" lon="5.72038">
        <ele>1508.47</ele>
        <time>2019-10-26T10:04:11Z</time>
      </trkpt>
      <trkpt lat="44.53918" lon="5.72012">
        <ele>1509.63</ele>
        <time>2019-10-26T10:04:25Z</time>
      </trkpt>
      <trkpt lat="44.53923" lon="5.71968">
        <ele>1512.81</ele>
        <time>2019-10-26T10:04:38Z</time>
      </trkpt>
      <trkpt lat="44.53935" lon="5.71917">
        <ele>1518.46</ele>
        <time>2019-10-26T10:04:49Z</time>
      </trkpt>
      <trkpt lat="44.53936" lon="5.71911">
        <ele>1518.66</ele>
        <time>2019-10-26T10:04:50Z</time>
      </trkpt>
      <trkpt lat="44.53937" lon="5.71904">
        <ele>1518.49</ele>
        <time>2019-10-26T10:04:51Z</time>
      </trkpt>
      <trkpt lat="44.53939" lon="5.71897">
        <ele>1518.76</ele>
        <time>2019-10-26T10:04:52Z</time>
      </trkpt>
      <trkpt lat="44.5394" lon="5.71888">
        <ele>1519.1</ele>
        <time>2019-10-26T10:04:53Z</time>
      </trkpt>
      <trkpt lat="44.53945" lon="5.71864">
        <ele>1519.36</ele>
        <time>2019-10-26T10:04:55Z</time>
      </trkpt>
      <trkpt lat="44.53984" lon="5.71742">
        <ele>1530.72</ele>
        <time>2019-10-26T10:05:05Z</time>
      </trkpt>
      <trkpt lat="44.53999" lon="5.71697">
        <ele>1534.58</ele>
        <time>2019-10-26T10:05:12Z</time>
      </trkpt>
      <trkpt lat="44.54004" lon="5.71683">
        <ele>1534.9</ele>
        <time>2019-10-26T10:05:25Z</time>
      </trkpt>
      <trkpt lat="44.54014" lon="5.71653">
        <ele>1534.09</ele>
        <time>2019-10-26T10:05:44Z</time>
      </trkpt>
      <trkpt lat="44.54023" lon="5.71631">
        <ele>1536.11</ele>
        <time>2019-10-26T10:05:58Z</time>
      </trkpt>
      <trkpt lat="44.54024" lon="5.71628">
        <ele>1536.28</ele>
        <time>2019-10-26T10:06:00Z</time>
      </trkpt>
      <trkpt lat="44.5403" lon="5.71617">
        <ele>1536.4</ele>
        <time>2019-10-26T10:06:07Z</time>
      </trkpt>
      <trkpt lat="44.5403" lon="5.71615">
        <ele>1536.44</ele>
        <time>2019-10-26T10:06:08Z</time>
      </trkpt>
      <trkpt lat="44.54036" lon="5.71598">
        <ele>1537.19</ele>
        <time>2019-10-26T10:06:18Z</time>
      </trkpt>
      <trkpt lat="44.54046" lon="5.71574">
        <ele>1539.42</ele>
        <time>2019-10-26T10:06:35Z</time>
      </trkpt>
      <trkpt lat="44.54055" lon="5.71552">
        <ele>1542.56</ele>
        <time>2019-10-26T10:06:52Z</time>
      </trkpt>
      <trkpt lat="44.54064" lon="5.71526">
        <ele>1543.94</ele>
        <time>2019-10-26T10:07:10Z</time>
      </trkpt>
      <trkpt lat="44.54069" lon="5.71499">
        <ele>1544.53</ele>
        <time>2019-10-26T10:07:27Z</time>
      </trkpt>
      <trkpt lat="44.54073" lon="5.71465">
        <ele>1546.34</ele>
        <time>2019-10-26T10:07:48Z</time>
      </trkpt>
      <trkpt lat="44.54076" lon="5.71433">
        <ele>1547.54</ele>
        <time>2019-10-26T10:08:08Z</time>
      </trkpt>
      <trkpt lat="44.54078" lon="5.71422">
        <ele>1548.54</ele>
        <time>2019-10-26T10:08:14Z</time>
      </trkpt>
      <trkpt lat="44.54079" lon="5.71421">
        <ele>1548.65</ele>
        <time>2019-10-26T10:08:15Z</time>
      </trkpt>
      <trkpt lat="44.5408" lon="5.7142">
        <ele>1548.73</ele>
        <time>2019-10-26T10:08:16Z</time>
      </trkpt>
      <trkpt lat="44.54081" lon="5.71418">
        <ele>1548.76</ele>
        <time>2019-10-26T10:08:17Z</time>
      </trkpt>
      <trkpt lat="44.54081" lon="5.71417">
        <ele>1548.92</ele>
        <time>2019-10-26T10:08:18Z</time>
      </trkpt>
      <trkpt lat="44.54082" lon="5.71415">
        <ele>1549.07</ele>
        <time>2019-10-26T10:08:19Z</time>
      </trkpt>
      <trkpt lat="44.54081" lon="5.71413">
        <ele>1549.24</ele>
        <time>2019-10-26T10:08:20Z</time>
      </trkpt>
      <trkpt lat="44.54081" lon="5.71412">
        <ele>1549.28</ele>
        <time>2019-10-26T10:08:21Z</time>
      </trkpt>
      <trkpt lat="44.54081" lon="5.7141">
        <ele>1549.39</ele>
        <time>2019-10-26T10:08:22Z</time>
      </trkpt>
      <trkpt lat="44.54081" lon="5.71408">
        <ele>1549.42</ele>
        <time>2019-10-26T10:08:23Z</time>
      </trkpt>
      <trkpt lat="44.54081" lon="5.71406">
        <ele>1549.58</ele>
        <time>2019-10-26T10:08:24Z</time>
      </trkpt>
      <trkpt lat="44.54081" lon="5.71405">
        <ele>1549.65</ele>
        <time>2019-10-26T10:08:25Z</time>
      </trkpt>
      <trkpt lat="44.54082" lon="5.71404">
        <ele>1549.68</ele>
        <time>2019-10-26T10:08:26Z</time>
      </trkpt>
      <trkpt lat="44.54087" lon="5.71404">
        <ele>1549.89</ele>
        <time>2019-10-26T10:08:32Z</time>
      </trkpt>
      <trkpt lat="44.54092" lon="5.71403">
        <ele>1549.7</ele>
        <time>2019-10-26T10:08:36Z</time>
      </trkpt>
      <trkpt lat="44.54111" lon="5.71387">
        <ele>1548.21</ele>
        <time>2019-10-26T10:08:54Z</time>
      </trkpt>
      <trkpt lat="44.54125" lon="5.71368">
        <ele>1546.57</ele>
        <time>2019-10-26T10:09:11Z</time>
      </trkpt>
      <trkpt lat="44.54132" lon="5.71358">
        <ele>1545.59</ele>
        <time>2019-10-26T10:09:22Z</time>
      </trkpt>
      <trkpt lat="44.54143" lon="5.71327">
        <ele>1546.41</ele>
        <time>2019-10-26T10:09:40Z</time>
      </trkpt>
      <trkpt lat="44.54148" lon="5.71311">
        <ele>1546.28</ele>
        <time>2019-10-26T10:09:58Z</time>
      </trkpt>
      <trkpt lat="44.54149" lon="5.71309">
        <ele>1545.81</ele>
        <time>2019-10-26T10:10:22Z</time>
      </trkpt>
      <trkpt lat="44.54161" lon="5.71286">
        <ele>1546.11</ele>
        <time>2019-10-26T10:10:39Z</time>
      </trkpt>
      <trkpt lat="44.54169" lon="5.7125">
        <ele>1546.35</ele>
        <time>2019-10-26T10:11:01Z</time>
      </trkpt>
      <trkpt lat="44.54175" lon="5.7122">
        <ele>1546.12</ele>
        <time>2019-10-26T10:11:20Z</time>
      </trkpt>
      <trkpt lat="44.54178" lon="5.71193">
        <ele>1545.89</ele>
        <time>2019-10-26T10:11:40Z</time>
      </trkpt>
      <trkpt lat="44.54179" lon="5.71181">
        <ele>1545.76</ele>
        <time>2019-10-26T10:11:57Z</time>
      </trkpt>
      <trkpt lat="44.54179" lon="5.7118">
        <ele>1545.06</ele>
        <time>2019-10-26T10:12:29Z</time>
      </trkpt>
      <trkpt lat="44.54174" lon="5.71177">
        <ele>1545.67</ele>
        <time>2019-10-26T10:12:34Z</time>
      </trkpt>
      <trkpt lat="44.54169" lon="5.71177">
        <ele>1545.98</ele>
        <time>2019-10-26T10:12:37Z</time>
      </trkpt>
      <trkpt lat="44.54167" lon="5.71174">
        <ele>1545.77</ele>
        <time>2019-10-26T10:12:42Z</time>
      </trkpt>
      <trkpt lat="44.54165" lon="5.71165">
        <ele>1545.72</ele>
        <time>2019-10-26T10:12:47Z</time>
      </trkpt>
      <trkpt lat="44.54166" lon="5.71151">
        <ele>1545.89</ele>
        <time>2019-10-26T10:13:01Z</time>
      </trkpt>
      <trkpt lat="44.54166" lon="5.71151">
        <ele>1545.89</ele>
        <time>2019-10-26T10:13:02Z</time>
      </trkpt>
      <trkpt lat="44.54171" lon="5.71149">
        <ele>1545.77</ele>
        <time>2019-10-26T10:13:10Z</time>
      </trkpt>
      <trkpt lat="44.54175" lon="5.71121">
        <ele>1545.52</ele>
        <time>2019-10-26T10:13:27Z</time>
      </trkpt>
      <trkpt lat="44.54186" lon="5.71087">
        <ele>1546.53</ele>
        <time>2019-10-26T10:13:47Z</time>
      </trkpt>
      <trkpt lat="44.54207" lon="5.71058">
        <ele>1550.8</ele>
        <time>2019-10-26T10:14:10Z</time>
      </trkpt>
      <trkpt lat="44.54227" lon="5.7104">
        <ele>1553.28</ele>
        <time>2019-10-26T10:14:29Z</time>
      </trkpt>
      <trkpt lat="44.54251" lon="5.71017">
        <ele>1554.05</ele>
        <time>2019-10-26T10:14:51Z</time>
      </trkpt>
      <trkpt lat="44.54274" lon="5.70996">
        <ele>1556.05</ele>
        <time>2019-10-26T10:15:13Z</time>
      </trkpt>
      <trkpt lat="44.54295" lon="5.70976">
        <ele>1558.83</ele>
        <time>2019-10-26T10:15:34Z</time>
      </trkpt>
      <trkpt lat="44.54314" lon="5.70951">
        <ele>1558.97</ele>
        <time>2019-10-26T10:15:55Z</time>
      </trkpt>
      <trkpt lat="44.54328" lon="5.70924">
        <ele>1557.45</ele>
        <time>2019-10-26T10:16:13Z</time>
      </trkpt>
      <trkpt lat="44.54344" lon="5.7089">
        <ele>1558.43</ele>
        <time>2019-10-26T10:16:38Z</time>
      </trkpt>
      <trkpt lat="44.54351" lon="5.70861">
        <ele>1560.03</ele>
        <time>2019-10-26T10:16:57Z</time>
      </trkpt>
      <trkpt lat="44.54357" lon="5.70829">
        <ele>1561.42</ele>
        <time>2019-10-26T10:17:15Z</time>
      </trkpt>
      <trkpt lat="44.5437" lon="5.70793">
        <ele>1562.35</ele>
        <time>2019-10-26T10:17:37Z</time>
      </trkpt>
      <trkpt lat="44.54384" lon="5.70776">
        <ele>1562.33</ele>
        <time>2019-10-26T10:17:53Z</time>
      </trkpt>
      <trkpt lat="44.54405" lon="5.70749">
        <ele>1564.61</ele>
        <time>2019-10-26T10:18:17Z</time>
      </trkpt>
      <trkpt lat="44.5442" lon="5.70728">
        <ele>1566.29</ele>
        <time>2019-10-26T10:18:36Z</time>
      </trkpt>
      <trkpt lat="44.54422" lon="5.70726">
        <ele>1566.08</ele>
        <time>2019-10-26T10:18:38Z</time>
      </trkpt>
      <trkpt lat="44.54428" lon="5.70724">
        <ele>1565.43</ele>
        <time>2019-10-26T10:18:45Z</time>
      </trkpt>
      <trkpt lat="44.54443" lon="5.70703">
        <ele>1565.95</ele>
        <time>2019-10-26T10:19:04Z</time>
      </trkpt>
      <trkpt lat="44.54458" lon="5.70687">
        <ele>1564.99</ele>
        <time>2019-10-26T10:19:20Z</time>
      </trkpt>
      <trkpt lat="44.54477" lon="5.70667">
        <ele>1564.78</ele>
        <time>2019-10-26T10:19:39Z</time>
      </trkpt>
      <trkpt lat="44.54478" lon="5.70666">
        <ele>1564.46</ele>
        <time>2019-10-26T10:19:56Z</time>
      </trkpt>
      <trkpt lat="44.54492" lon="5.70652">
        <ele>1563.65</ele>
        <time>2019-10-26T10:20:10Z</time>
      </trkpt>
      <trkpt lat="44.54512" lon="5.70632">
        <ele>1564.28</ele>
        <time>2019-10-26T10:20:30Z</time>
      </trkpt>
      <trkpt lat="44.5453" lon="5.70616">
        <ele>1563.15</ele>
        <time>2019-10-26T10:20:49Z</time>
      </trkpt>
      <trkpt lat="44.54543" lon="5.70596">
        <ele>1563.11</ele>
        <time>2019-10-26T10:21:04Z</time>
      </trkpt>
      <trkpt lat="44.54549" lon="5.70589">
        <ele>1563.76</ele>
        <time>2019-10-26T10:21:19Z</time>
      </trkpt>
      <trkpt lat="44.54564" lon="5.70572">
        <ele>1564.84</ele>
        <time>2019-10-26T10:21:36Z</time>
      </trkpt>
      <trkpt lat="44.54583" lon="5.70554">
        <ele>1565.24</ele>
        <time>2019-10-26T10:21:57Z</time>
      </trkpt>
      <trkpt lat="44.54605" lon="5.70534">
        <ele>1565.74</ele>
        <time>2019-10-26T10:22:19Z</time>
      </trkpt>
      <trkpt lat="44.54615" lon="5.70525">
        <ele>1566.26</ele>
        <time>2019-10-26T10:22:29Z</time>
      </trkpt>
      <trkpt lat="44.54622" lon="5.70525">
        <ele>1565.78</ele>
        <time>2019-10-26T10:22:44Z</time>
      </trkpt>
      <trkpt lat="44.54623" lon="5.70523">
        <ele>1565.67</ele>
        <time>2019-10-26T10:23:11Z</time>
      </trkpt>
      <trkpt lat="44.54624" lon="5.70523">
        <ele>1565.24</ele>
        <time>2019-10-26T10:23:23Z</time>
      </trkpt>
      <trkpt lat="44.54626" lon="5.70524">
        <ele>1564.06</ele>
        <time>2019-10-26T10:23:44Z</time>
      </trkpt>
      <trkpt lat="44.54633" lon="5.70522">
        <ele>1564.72</ele>
        <time>2019-10-26T10:23:58Z</time>
      </trkpt>
      <trkpt lat="44.54634" lon="5.70521">
        <ele>1564.68</ele>
        <time>2019-10-26T10:24:01Z</time>
      </trkpt>
      <trkpt lat="44.54641" lon="5.7051">
        <ele>1565.16</ele>
        <time>2019-10-26T10:24:15Z</time>
      </trkpt>
      <trkpt lat="44.54639" lon="5.7051">
        <ele>1564.99</ele>
        <time>2019-10-26T10:24:30Z</time>
      </trkpt>
      <trkpt lat="44.54639" lon="5.70509">
        <ele>1564.34</ele>
        <time>2019-10-26T10:24:42Z</time>
      </trkpt>
      <trkpt lat="44.54637" lon="5.7051">
        <ele>1564.16</ele>
        <time>2019-10-26T10:25:08Z</time>
      </trkpt>
      <trkpt lat="44.5463" lon="5.70503">
        <ele>1563.78</ele>
        <time>2019-10-26T10:25:21Z</time>
      </trkpt>
      <trkpt lat="44.54629" lon="5.70504">
        <ele>1563.08</ele>
        <time>2019-10-26T10:25:54Z</time>
      </trkpt>
      <trkpt lat="44.54629" lon="5.70504">
        <ele>1562.54</ele>
        <time>2019-10-26T10:27:15Z</time>
      </trkpt>
      <trkpt lat="44.54629" lon="5.70504">
        <ele>1562.47</ele>
        <time>2019-10-26T10:28:44Z</time>
      </trkpt>
      <trkpt lat="44.5463" lon="5.70503">
        <ele>1562.39</ele>
        <time>2019-10-26T10:30:05Z</time>
      </trkpt>
      <trkpt lat="44.5463" lon="5.70503">
        <ele>1562.7</ele>
        <time>2019-10-26T10:31:27Z</time>
      </trkpt>
      <trkpt lat="44.54629" lon="5.70504">
        <ele>1562.56</ele>
        <time>2019-10-26T10:32:54Z</time>
      </trkpt>
      <trkpt lat="44.54629" lon="5.70504">
        <ele>1561.54</ele>
        <time>2019-10-26T10:34:16Z</time>
      </trkpt>
      <trkpt lat="44.54629" lon="5.70504">
        <ele>1561.22</ele>
        <time>2019-10-26T10:35:38Z</time>
      </trkpt>
      <trkpt lat="44.5463" lon="5.70504">
        <ele>1561.12</ele>
        <time>2019-10-26T10:37:06Z</time>
      </trkpt>
      <trkpt lat="44.5463" lon="5.70504">
        <ele>1561.32</ele>
        <time>2019-10-26T10:38:18Z</time>
      </trkpt>
      <trkpt lat="44.54629" lon="5.70503">
        <ele>1561.18</ele>
        <time>2019-10-26T10:38:51Z</time>
      </trkpt>
      <trkpt lat="44.54628" lon="5.70502">
        <ele>1561.23</ele>
        <time>2019-10-26T10:39:59Z</time>
      </trkpt>
      <trkpt lat="44.54628" lon="5.70502">
        <ele>1561.54</ele>
        <time>2019-10-26T10:40:34Z</time>
      </trkpt>
      <trkpt lat="44.54628" lon="5.70502">
        <ele>1561.24</ele>
        <time>2019-10-26T10:41:31Z</time>
      </trkpt>
      <trkpt lat="44.54628" lon="5.70502">
        <ele>1561.33</ele>
        <time>2019-10-26T10:42:30Z</time>
      </trkpt>
      <trkpt lat="44.54629" lon="5.70503">
        <ele>1561.48</ele>
        <time>2019-10-26T10:43:05Z</time>
      </trkpt>
      <trkpt lat="44.54629" lon="5.70504">
        <ele>1561.51</ele>
        <time>2019-10-26T10:43:44Z</time>
      </trkpt>
      <trkpt lat="44.54629" lon="5.70504">
        <ele>1561.8</ele>
        <time>2019-10-26T10:44:21Z</time>
      </trkpt>
      <trkpt lat="44.5463" lon="5.70504">
        <ele>1562.03</ele>
        <time>2019-10-26T10:45:00Z</time>
      </trkpt>
      <trkpt lat="44.5463" lon="5.70504">
        <ele>1562.21</ele>
        <time>2019-10-26T10:45:38Z</time>
      </trkpt>
      <trkpt lat="44.54629" lon="5.70504">
        <ele>1562.36</ele>
        <time>2019-10-26T10:46:09Z</time>
      </trkpt>
      <trkpt lat="44.54628" lon="5.70503">
        <ele>1562.35</ele>
        <time>2019-10-26T10:46:53Z</time>
      </trkpt>
      <trkpt lat="44.54628" lon="5.70503">
        <ele>1562.7</ele>
        <time>2019-10-26T10:47:35Z</time>
      </trkpt>
      <trkpt lat="44.54629" lon="5.70503">
        <ele>1562.74</ele>
        <time>2019-10-26T10:48:19Z</time>
      </trkpt>
      <trkpt lat="44.54628" lon="5.70503">
        <ele>1562.63</ele>
        <time>2019-10-26T10:48:59Z</time>
      </trkpt>
      <trkpt lat="44.54629" lon="5.70503">
        <ele>1562.55</ele>
        <time>2019-10-26T10:49:41Z</time>
      </trkpt>
      <trkpt lat="44.54629" lon="5.70503">
        <ele>1562.66</ele>
        <time>2019-10-26T10:50:25Z</time>
      </trkpt>
      <trkpt lat="44.54628" lon="5.70503">
        <ele>1562.69</ele>
        <time>2019-10-26T10:51:02Z</time>
      </trkpt>
      <trkpt lat="44.54629" lon="5.70503">
        <ele>1562.82</ele>
        <time>2019-10-26T10:51:45Z</time>
      </trkpt>
      <trkpt lat="44.54629" lon="5.70503">
        <ele>1562.65</ele>
        <time>2019-10-26T10:52:23Z</time>
      </trkpt>
      <trkpt lat="44.54629" lon="5.70503">
        <ele>1563.06</ele>
        <time>2019-10-26T10:53:07Z</time>
      </trkpt>
      <trkpt lat="44.54629" lon="5.70503">
        <ele>1562.92</ele>
        <time>2019-10-26T10:53:48Z</time>
      </trkpt>
      <trkpt lat="44.54628" lon="5.70503">
        <ele>1563.07</ele>
        <time>2019-10-26T10:54:30Z</time>
      </trkpt>
      <trkpt lat="44.54628" lon="5.70503">
        <ele>1562.97</ele>
        <time>2019-10-26T10:55:17Z</time>
      </trkpt>
      <trkpt lat="44.54628" lon="5.70503">
        <ele>1563.23</ele>
        <time>2019-10-26T10:55:54Z</time>
      </trkpt>
      <trkpt lat="44.54628" lon="5.70504">
        <ele>1563.07</ele>
        <time>2019-10-26T10:56:35Z</time>
      </trkpt>
      <trkpt lat="44.54627" lon="5.70503">
        <ele>1562.81</ele>
        <time>2019-10-26T10:57:13Z</time>
      </trkpt>
      <trkpt lat="44.54627" lon="5.70502">
        <ele>1562.52</ele>
        <time>2019-10-26T10:58:01Z</time>
      </trkpt>
      <trkpt lat="44.54628" lon="5.70502">
        <ele>1562.63</ele>
        <time>2019-10-26T10:58:49Z</time>
      </trkpt>
      <trkpt lat="44.54628" lon="5.70502">
        <ele>1562.83</ele>
        <time>2019-10-26T10:59:28Z</time>
      </trkpt>
      <trkpt lat="44.54628" lon="5.70503">
        <ele>1562.96</ele>
        <time>2019-10-26T11:00:09Z</time>
      </trkpt>
      <trkpt lat="44.54627" lon="5.70503">
        <ele>1563.17</ele>
        <time>2019-10-26T11:00:56Z</time>
      </trkpt>
      <trkpt lat="44.54628" lon="5.70503">
        <ele>1563.68</ele>
        <time>2019-10-26T11:01:39Z</time>
      </trkpt>
      <trkpt lat="44.54629" lon="5.70503">
        <ele>1563.77</ele>
        <time>2019-10-26T11:02:24Z</time>
      </trkpt>
      <trkpt lat="44.54628" lon="5.70502">
        <ele>1563.94</ele>
        <time>2019-10-26T11:03:03Z</time>
      </trkpt>
      <trkpt lat="44.54629" lon="5.70502">
        <ele>1564.24</ele>
        <time>2019-10-26T11:03:46Z</time>
      </trkpt>
      <trkpt lat="44.5463" lon="5.70503">
        <ele>1564.05</ele>
        <time>2019-10-26T11:04:31Z</time>
      </trkpt>
      <trkpt lat="44.54629" lon="5.70502">
        <ele>1564.21</ele>
        <time>2019-10-26T11:05:14Z</time>
      </trkpt>
      <trkpt lat="44.54628" lon="5.70502">
        <ele>1564.53</ele>
        <time>2019-10-26T11:05:49Z</time>
      </trkpt>
      <trkpt lat="44.54629" lon="5.70506">
        <ele>1564.48</ele>
        <time>2019-10-26T11:06:22Z</time>
      </trkpt>
      <trkpt lat="44.54629" lon="5.70506">
        <ele>1564.81</ele>
        <time>2019-10-26T11:06:53Z</time>
      </trkpt>
      <trkpt lat="44.54629" lon="5.70505">
        <ele>1565.12</ele>
        <time>2019-10-26T11:07:24Z</time>
      </trkpt>
      <trkpt lat="44.54629" lon="5.70504">
        <ele>1565.05</ele>
        <time>2019-10-26T11:07:58Z</time>
      </trkpt>
      <trkpt lat="44.54629" lon="5.70502">
        <ele>1565.28</ele>
        <time>2019-10-26T11:08:29Z</time>
      </trkpt>
      <trkpt lat="44.54628" lon="5.70501">
        <ele>1566.26</ele>
        <time>2019-10-26T11:08:59Z</time>
      </trkpt>
      <trkpt lat="44.5463" lon="5.70504">
        <ele>1567.15</ele>
        <time>2019-10-26T11:09:32Z</time>
      </trkpt>
      <trkpt lat="44.54631" lon="5.70505">
        <ele>1567.63</ele>
        <time>2019-10-26T11:10:04Z</time>
      </trkpt>
      <trkpt lat="44.54631" lon="5.70507">
        <ele>1568.2</ele>
        <time>2019-10-26T11:10:37Z</time>
      </trkpt>
      <trkpt lat="44.54628" lon="5.70503">
        <ele>1566.48</ele>
        <time>2019-10-26T11:11:08Z</time>
      </trkpt>
      <trkpt lat="44.54628" lon="5.70499">
        <ele>1566.04</ele>
        <time>2019-10-26T11:11:42Z</time>
      </trkpt>
      <trkpt lat="44.54628" lon="5.70499">
        <ele>1566.64</ele>
        <time>2019-10-26T11:12:14Z</time>
      </trkpt>
      <trkpt lat="44.54628" lon="5.705">
        <ele>1566.82</ele>
        <time>2019-10-26T11:12:57Z</time>
      </trkpt>
      <trkpt lat="44.54627" lon="5.705">
        <ele>1566.47</ele>
        <time>2019-10-26T11:13:39Z</time>
      </trkpt>
      <trkpt lat="44.54627" lon="5.70499">
        <ele>1565.66</ele>
        <time>2019-10-26T11:14:21Z</time>
      </trkpt>
      <trkpt lat="44.54628" lon="5.70499">
        <ele>1565.48</ele>
        <time>2019-10-26T11:15:00Z</time>
      </trkpt>
      <trkpt lat="44.54628" lon="5.70499">
        <ele>1565.51</ele>
        <time>2019-10-26T11:15:41Z</time>
      </trkpt>
      <trkpt lat="44.54628" lon="5.705">
        <ele>1564.66</ele>
        <time>2019-10-26T11:16:12Z</time>
      </trkpt>
      <trkpt lat="44.54628" lon="5.70502">
        <ele>1563.86</ele>
        <time>2019-10-26T11:16:56Z</time>
      </trkpt>
      <trkpt lat="44.54627" lon="5.70503">
        <ele>1563.2</ele>
        <time>2019-10-26T11:17:40Z</time>
      </trkpt>
      <trkpt lat="44.54628" lon="5.70503">
        <ele>1563.28</ele>
        <time>2019-10-26T11:18:25Z</time>
      </trkpt>
      <trkpt lat="44.54628" lon="5.70503">
        <ele>1563.32</ele>
        <time>2019-10-26T11:19:11Z</time>
      </trkpt>
      <trkpt lat="44.54627" lon="5.70503">
        <ele>1562.95</ele>
        <time>2019-10-26T11:19:52Z</time>
      </trkpt>
      <trkpt lat="44.54627" lon="5.70502">
        <ele>1563.45</ele>
        <time>2019-10-26T11:20:36Z</time>
      </trkpt>
      <trkpt lat="44.54627" lon="5.70502">
        <ele>1564.03</ele>
        <time>2019-10-26T11:21:24Z</time>
      </trkpt>
      <trkpt lat="44.54628" lon="5.70499">
        <ele>1564.87</ele>
        <time>2019-10-26T11:22:15Z</time>
      </trkpt>
      <trkpt lat="44.54627" lon="5.70499">
        <ele>1565.74</ele>
        <time>2019-10-26T11:23:05Z</time>
      </trkpt>
      <trkpt lat="44.54624" lon="5.705">
        <ele>1565.69</ele>
        <time>2019-10-26T11:23:36Z</time>
      </trkpt>
      <trkpt lat="44.54625" lon="5.70502">
        <ele>1565.65</ele>
        <time>2019-10-26T11:24:06Z</time>
      </trkpt>
      <trkpt lat="44.54628" lon="5.70499">
        <ele>1565.98</ele>
        <time>2019-10-26T11:24:45Z</time>
      </trkpt>
      <trkpt lat="44.54629" lon="5.705">
        <ele>1565.12</ele>
        <time>2019-10-26T11:25:52Z</time>
      </trkpt>
      <trkpt lat="44.54629" lon="5.705">
        <ele>1564.45</ele>
        <time>2019-10-26T11:26:47Z</time>
      </trkpt>
      <trkpt lat="44.54628" lon="5.70501">
        <ele>1564.18</ele>
        <time>2019-10-26T11:27:31Z</time>
      </trkpt>
      <trkpt lat="44.54627" lon="5.70501">
        <ele>1564.09</ele>
        <time>2019-10-26T11:28:24Z</time>
      </trkpt>
      <trkpt lat="44.54627" lon="5.70501">
        <ele>1564.47</ele>
        <time>2019-10-26T11:29:06Z</time>
      </trkpt>
      <trkpt lat="44.54627" lon="5.705">
        <ele>1565.2</ele>
        <time>2019-10-26T11:30:00Z</time>
      </trkpt>
      <trkpt lat="44.54628" lon="5.70499">
        <ele>1565.8</ele>
        <time>2019-10-26T11:31:06Z</time>
      </trkpt>
      <trkpt lat="44.54627" lon="5.705">
        <ele>1566.24</ele>
        <time>2019-10-26T11:31:54Z</time>
      </trkpt>
      <trkpt lat="44.54628" lon="5.70501">
        <ele>1564.51</ele>
        <time>2019-10-26T11:32:46Z</time>
      </trkpt>
      <trkpt lat="44.54628" lon="5.70502">
        <ele>1563.28</ele>
        <time>2019-10-26T11:33:32Z</time>
      </trkpt>
      <trkpt lat="44.54627" lon="5.70502">
        <ele>1562.38</ele>
        <time>2019-10-26T11:34:24Z</time>
      </trkpt>
      <trkpt lat="44.54627" lon="5.70501">
        <ele>1562.8</ele>
        <time>2019-10-26T11:35:06Z</time>
      </trkpt>
      <trkpt lat="44.54627" lon="5.70501">
        <ele>1563.13</ele>
        <time>2019-10-26T11:36:04Z</time>
      </trkpt>
      <trkpt lat="44.54627" lon="5.70501">
        <ele>1563.27</ele>
        <time>2019-10-26T11:36:52Z</time>
      </trkpt>
      <trkpt lat="44.54627" lon="5.70503">
        <ele>1562.46</ele>
        <time>2019-10-26T11:37:38Z</time>
      </trkpt>
      <trkpt lat="44.54626" lon="5.70502">
        <ele>1561.95</ele>
        <time>2019-10-26T11:38:12Z</time>
      </trkpt>
      <trkpt lat="44.54628" lon="5.70501">
        <ele>1564.02</ele>
        <time>2019-10-26T11:38:44Z</time>
      </trkpt>
      <trkpt lat="44.54627" lon="5.70502">
        <ele>1565.67</ele>
        <time>2019-10-26T11:39:21Z</time>
      </trkpt>
      <trkpt lat="44.54627" lon="5.70502">
        <ele>1566.79</ele>
        <time>2019-10-26T11:40:11Z</time>
      </trkpt>
      <trkpt lat="44.54626" lon="5.70499">
        <ele>1566.58</ele>
        <time>2019-10-26T11:40:48Z</time>
      </trkpt>
      <trkpt lat="44.54626" lon="5.70499">
        <ele>1567.93</ele>
        <time>2019-10-26T11:41:32Z</time>
      </trkpt>
      <trkpt lat="44.54626" lon="5.70498">
        <ele>1568.91</ele>
        <time>2019-10-26T11:42:14Z</time>
      </trkpt>
      <trkpt lat="44.54626" lon="5.70497">
        <ele>1570.16</ele>
        <time>2019-10-26T11:42:47Z</time>
      </trkpt>
      <trkpt lat="44.54627" lon="5.70497">
        <ele>1569.44</ele>
        <time>2019-10-26T11:43:20Z</time>
      </trkpt>
      <trkpt lat="44.54627" lon="5.70497">
        <ele>1569.36</ele>
        <time>2019-10-26T11:43:54Z</time>
      </trkpt>
      <trkpt lat="44.54626" lon="5.70497">
        <ele>1569.5</ele>
        <time>2019-10-26T11:44:26Z</time>
      </trkpt>
      <trkpt lat="44.54628" lon="5.70499">
        <ele>1569.43</ele>
        <time>2019-10-26T11:44:55Z</time>
      </trkpt>
      <trkpt lat="44.54628" lon="5.705">
        <ele>1568.35</ele>
        <time>2019-10-26T11:45:27Z</time>
      </trkpt>
      <trkpt lat="44.54628" lon="5.705">
        <ele>1567.68</ele>
        <time>2019-10-26T11:46:12Z</time>
      </trkpt>
      <trkpt lat="44.54629" lon="5.705">
        <ele>1566.9</ele>
        <time>2019-10-26T11:46:52Z</time>
      </trkpt>
      <trkpt lat="44.54628" lon="5.70501">
        <ele>1565.63</ele>
        <time>2019-10-26T11:47:26Z</time>
      </trkpt>
      <trkpt lat="44.54628" lon="5.70501">
        <ele>1563.33</ele>
        <time>2019-10-26T11:48:41Z</time>
      </trkpt>
      <trkpt lat="44.54629" lon="5.705">
        <ele>1561.71</ele>
        <time>2019-10-26T11:49:57Z</time>
      </trkpt>
      <trkpt lat="44.54628" lon="5.705">
        <ele>1561.51</ele>
        <time>2019-10-26T11:51:05Z</time>
      </trkpt>
      <trkpt lat="44.54629" lon="5.705">
        <ele>1560.64</ele>
        <time>2019-10-26T11:52:14Z</time>
      </trkpt>
      <trkpt lat="44.54629" lon="5.705">
        <ele>1560.82</ele>
        <time>2019-10-26T11:52:48Z</time>
      </trkpt>
      <trkpt lat="44.54629" lon="5.70501">
        <ele>1560.53</ele>
        <time>2019-10-26T11:52:58Z</time>
      </trkpt>
      <trkpt lat="44.54641" lon="5.70508">
        <ele>1561.03</ele>
        <time>2019-10-26T11:53:13Z</time>
      </trkpt>
      <trkpt lat="44.54642" lon="5.70509">
        <ele>1561.95</ele>
        <time>2019-10-26T11:53:25Z</time>
      </trkpt>
      <trkpt lat="44.54643" lon="5.70514">
        <ele>1560.72</ele>
        <time>2019-10-26T11:53:46Z</time>
      </trkpt>
      <trkpt lat="44.5464" lon="5.70507">
        <ele>1560.27</ele>
        <time>2019-10-26T11:54:04Z</time>
      </trkpt>
      <trkpt lat="44.54636" lon="5.70507">
        <ele>1559.84</ele>
        <time>2019-10-26T11:54:17Z</time>
      </trkpt>
      <trkpt lat="44.54637" lon="5.70504">
        <ele>1559.45</ele>
        <time>2019-10-26T11:54:47Z</time>
      </trkpt>
      <trkpt lat="44.54638" lon="5.70507">
        <ele>1559.93</ele>
        <time>2019-10-26T11:55:06Z</time>
      </trkpt>
      <trkpt lat="44.54641" lon="5.70509">
        <ele>1560.19</ele>
        <time>2019-10-26T11:55:20Z</time>
      </trkpt>
      <trkpt lat="44.54641" lon="5.70506">
        <ele>1559.18</ele>
        <time>2019-10-26T11:55:42Z</time>
      </trkpt>
      <trkpt lat="44.54644" lon="5.70499">
        <ele>1560.33</ele>
        <time>2019-10-26T11:55:56Z</time>
      </trkpt>
      <trkpt lat="44.54645" lon="5.705">
        <ele>1559.97</ele>
        <time>2019-10-26T11:56:18Z</time>
      </trkpt>
      <trkpt lat="44.54643" lon="5.70506">
        <ele>1559.98</ele>
        <time>2019-10-26T11:56:29Z</time>
      </trkpt>
      <trkpt lat="44.54642" lon="5.7051">
        <ele>1560.03</ele>
        <time>2019-10-26T11:56:39Z</time>
      </trkpt>
      <trkpt lat="44.54642" lon="5.70511">
        <ele>1560.42</ele>
        <time>2019-10-26T11:56:55Z</time>
      </trkpt>
      <trkpt lat="44.54642" lon="5.70512">
        <ele>1560.6</ele>
        <time>2019-10-26T11:57:12Z</time>
      </trkpt>
      <trkpt lat="44.54638" lon="5.70512">
        <ele>1560.82</ele>
        <time>2019-10-26T11:57:28Z</time>
      </trkpt>
      <trkpt lat="44.54636" lon="5.7051">
        <ele>1561.42</ele>
        <time>2019-10-26T11:57:52Z</time>
      </trkpt>
      <trkpt lat="44.54633" lon="5.70511">
        <ele>1562.05</ele>
        <time>2019-10-26T11:58:11Z</time>
      </trkpt>
      <trkpt lat="44.54632" lon="5.70509">
        <ele>1561.86</ele>
        <time>2019-10-26T11:58:27Z</time>
      </trkpt>
      <trkpt lat="44.54638" lon="5.70508">
        <ele>1561.17</ele>
        <time>2019-10-26T11:58:38Z</time>
      </trkpt>
      <trkpt lat="44.54641" lon="5.70508">
        <ele>1560.69</ele>
        <time>2019-10-26T11:58:54Z</time>
      </trkpt>
      <trkpt lat="44.54639" lon="5.70507">
        <ele>1559.98</ele>
        <time>2019-10-26T11:59:15Z</time>
      </trkpt>
      <trkpt lat="44.54635" lon="5.70508">
        <ele>1559.71</ele>
        <time>2019-10-26T11:59:30Z</time>
      </trkpt>
      <trkpt lat="44.54632" lon="5.70504">
        <ele>1559.05</ele>
        <time>2019-10-26T11:59:45Z</time>
      </trkpt>
      <trkpt lat="44.54631" lon="5.70509">
        <ele>1559.06</ele>
        <time>2019-10-26T11:59:56Z</time>
      </trkpt>
      <trkpt lat="44.54635" lon="5.7051">
        <ele>1559.39</ele>
        <time>2019-10-26T12:00:12Z</time>
      </trkpt>
      <trkpt lat="44.54634" lon="5.70507">
        <ele>1559.31</ele>
        <time>2019-10-26T12:00:24Z</time>
      </trkpt>
      <trkpt lat="44.54635" lon="5.70499">
        <ele>1559.33</ele>
        <time>2019-10-26T12:00:41Z</time>
      </trkpt>
      <trkpt lat="44.5464" lon="5.70498">
        <ele>1559.36</ele>
        <time>2019-10-26T12:00:50Z</time>
      </trkpt>
      <trkpt lat="44.54654" lon="5.70491">
        <ele>1559.16</ele>
        <time>2019-10-26T12:01:05Z</time>
      </trkpt>
      <trkpt lat="44.54673" lon="5.70477">
        <ele>1558.31</ele>
        <time>2019-10-26T12:01:24Z</time>
      </trkpt>
      <trkpt lat="44.54691" lon="5.70464">
        <ele>1558.05</ele>
        <time>2019-10-26T12:01:41Z</time>
      </trkpt>
      <trkpt lat="44.54707" lon="5.70451">
        <ele>1557.78</ele>
        <time>2019-10-26T12:01:55Z</time>
      </trkpt>
      <trkpt lat="44.5472" lon="5.70435">
        <ele>1556.72</ele>
        <time>2019-10-26T12:02:09Z</time>
      </trkpt>
      <trkpt lat="44.54721" lon="5.70433">
        <ele>1556.43</ele>
        <time>2019-10-26T12:02:10Z</time>
      </trkpt>
      <trkpt lat="44.5473" lon="5.7042">
        <ele>1554.13</ele>
        <time>2019-10-26T12:02:24Z</time>
      </trkpt>
      <trkpt lat="44.54739" lon="5.70416">
        <ele>1554.94</ele>
        <time>2019-10-26T12:02:30Z</time>
      </trkpt>
      <trkpt lat="44.5476" lon="5.70395">
        <ele>1552.51</ele>
        <time>2019-10-26T12:02:49Z</time>
      </trkpt>
      <trkpt lat="44.5477" lon="5.70383">
        <ele>1552.55</ele>
        <time>2019-10-26T12:03:01Z</time>
      </trkpt>
      <trkpt lat="44.54771" lon="5.70382">
        <ele>1552.65</ele>
        <time>2019-10-26T12:03:03Z</time>
      </trkpt>
      <trkpt lat="44.54775" lon="5.70368">
        <ele>1552.15</ele>
        <time>2019-10-26T12:03:12Z</time>
      </trkpt>
      <trkpt lat="44.54794" lon="5.70355">
        <ele>1549.74</ele>
        <time>2019-10-26T12:03:28Z</time>
      </trkpt>
      <trkpt lat="44.54798" lon="5.70352">
        <ele>1549.78</ele>
        <time>2019-10-26T12:03:31Z</time>
      </trkpt>
      <trkpt lat="44.54803" lon="5.70341">
        <ele>1548.93</ele>
        <time>2019-10-26T12:03:47Z</time>
      </trkpt>
      <trkpt lat="44.54802" lon="5.7034">
        <ele>1547.73</ele>
        <time>2019-10-26T12:04:11Z</time>
      </trkpt>
      <trkpt lat="44.54807" lon="5.70339">
        <ele>1547.5</ele>
        <time>2019-10-26T12:04:30Z</time>
      </trkpt>
      <trkpt lat="44.54816" lon="5.70337">
        <ele>1547.6</ele>
        <time>2019-10-26T12:04:37Z</time>
      </trkpt>
      <trkpt lat="44.54819" lon="5.70337">
        <ele>1547.87</ele>
        <time>2019-10-26T12:04:40Z</time>
      </trkpt>
      <trkpt lat="44.5482" lon="5.70335">
        <ele>1548.16</ele>
        <time>2019-10-26T12:04:42Z</time>
      </trkpt>
      <trkpt lat="44.54836" lon="5.70325">
        <ele>1549.53</ele>
        <time>2019-10-26T12:04:56Z</time>
      </trkpt>
      <trkpt lat="44.54842" lon="5.7032">
        <ele>1549.07</ele>
        <time>2019-10-26T12:05:01Z</time>
      </trkpt>
      <trkpt lat="44.54862" lon="5.70305">
        <ele>1547.93</ele>
        <time>2019-10-26T12:05:19Z</time>
      </trkpt>
      <trkpt lat="44.54873" lon="5.70298">
        <ele>1547.63</ele>
        <time>2019-10-26T12:05:27Z</time>
      </trkpt>
      <trkpt lat="44.54893" lon="5.70286">
        <ele>1545.82</ele>
        <time>2019-10-26T12:05:44Z</time>
      </trkpt>
      <trkpt lat="44.54914" lon="5.70275">
        <ele>1544.19</ele>
        <time>2019-10-26T12:06:01Z</time>
      </trkpt>
      <trkpt lat="44.54935" lon="5.70266">
        <ele>1543.85</ele>
        <time>2019-10-26T12:06:18Z</time>
      </trkpt>
      <trkpt lat="44.54953" lon="5.70259">
        <ele>1543.54</ele>
        <time>2019-10-26T12:06:36Z</time>
      </trkpt>
      <trkpt lat="44.54957" lon="5.7026">
        <ele>1542.6</ele>
        <time>2019-10-26T12:06:44Z</time>
      </trkpt>
      <trkpt lat="44.54964" lon="5.70251">
        <ele>1542.79</ele>
        <time>2019-10-26T12:06:54Z</time>
      </trkpt>
      <trkpt lat="44.54984" lon="5.70241">
        <ele>1543.86</ele>
        <time>2019-10-26T12:07:10Z</time>
      </trkpt>
      <trkpt lat="44.55005" lon="5.70232">
        <ele>1544.93</ele>
        <time>2019-10-26T12:07:27Z</time>
      </trkpt>
      <trkpt lat="44.55026" lon="5.70222">
        <ele>1546.57</ele>
        <time>2019-10-26T12:07:45Z</time>
      </trkpt>
      <trkpt lat="44.55031" lon="5.70224">
        <ele>1547.28</ele>
        <time>2019-10-26T12:08:01Z</time>
      </trkpt>
      <trkpt lat="44.55032" lon="5.70224">
        <ele>1547.35</ele>
        <time>2019-10-26T12:08:14Z</time>
      </trkpt>
      <trkpt lat="44.55044" lon="5.7022">
        <ele>1548.25</ele>
        <time>2019-10-26T12:08:27Z</time>
      </trkpt>
      <trkpt lat="44.55066" lon="5.70211">
        <ele>1549.22</ele>
        <time>2019-10-26T12:08:43Z</time>
      </trkpt>
      <trkpt lat="44.55088" lon="5.70203">
        <ele>1549.3</ele>
        <time>2019-10-26T12:09:00Z</time>
      </trkpt>
      <trkpt lat="44.55107" lon="5.70198">
        <ele>1550.66</ele>
        <time>2019-10-26T12:09:16Z</time>
      </trkpt>
      <trkpt lat="44.55112" lon="5.70197">
        <ele>1551.49</ele>
        <time>2019-10-26T12:09:20Z</time>
      </trkpt>
      <trkpt lat="44.55124" lon="5.70191">
        <ele>1551.77</ele>
        <time>2019-10-26T12:09:35Z</time>
      </trkpt>
      <trkpt lat="44.55134" lon="5.70189">
        <ele>1550.77</ele>
        <time>2019-10-26T12:09:51Z</time>
      </trkpt>
      <trkpt lat="44.55154" lon="5.70183">
        <ele>1547.91</ele>
        <time>2019-10-26T12:10:07Z</time>
      </trkpt>
      <trkpt lat="44.55178" lon="5.70175">
        <ele>1545.59</ele>
        <time>2019-10-26T12:10:24Z</time>
      </trkpt>
      <trkpt lat="44.55183" lon="5.70174">
        <ele>1544.9</ele>
        <time>2019-10-26T12:10:28Z</time>
      </trkpt>
      <trkpt lat="44.55201" lon="5.70167">
        <ele>1543.1</ele>
        <time>2019-10-26T12:10:44Z</time>
      </trkpt>
      <trkpt lat="44.55211" lon="5.7016">
        <ele>1542.3</ele>
        <time>2019-10-26T12:11:06Z</time>
      </trkpt>
      <trkpt lat="44.55234" lon="5.70151">
        <ele>1538.91</ele>
        <time>2019-10-26T12:11:23Z</time>
      </trkpt>
      <trkpt lat="44.55252" lon="5.7014">
        <ele>1534.97</ele>
        <time>2019-10-26T12:11:38Z</time>
      </trkpt>
      <trkpt lat="44.55273" lon="5.70131">
        <ele>1530.73</ele>
        <time>2019-10-26T12:11:56Z</time>
      </trkpt>
      <trkpt lat="44.55278" lon="5.70129">
        <ele>1528.42</ele>
        <time>2019-10-26T12:12:12Z</time>
      </trkpt>
      <trkpt lat="44.55279" lon="5.7013">
        <ele>1529.38</ele>
        <time>2019-10-26T12:12:28Z</time>
      </trkpt>
      <trkpt lat="44.55279" lon="5.7013">
        <ele>1529.51</ele>
        <time>2019-10-26T12:12:49Z</time>
      </trkpt>
      <trkpt lat="44.55291" lon="5.70122">
        <ele>1528.25</ele>
        <time>2019-10-26T12:13:09Z</time>
      </trkpt>
      <trkpt lat="44.55304" lon="5.70118">
        <ele>1524.81</ele>
        <time>2019-10-26T12:13:24Z</time>
      </trkpt>
      <trkpt lat="44.55304" lon="5.70122">
        <ele>1523.13</ele>
        <time>2019-10-26T12:13:36Z</time>
      </trkpt>
      <trkpt lat="44.55301" lon="5.70128">
        <ele>1522.69</ele>
        <time>2019-10-26T12:13:41Z</time>
      </trkpt>
      <trkpt lat="44.55305" lon="5.70133">
        <ele>1521.21</ele>
        <time>2019-10-26T12:13:56Z</time>
      </trkpt>
      <trkpt lat="44.55308" lon="5.70132">
        <ele>1518.86</ele>
        <time>2019-10-26T12:14:18Z</time>
      </trkpt>
      <trkpt lat="44.55314" lon="5.70134">
        <ele>1517.19</ele>
        <time>2019-10-26T12:14:42Z</time>
      </trkpt>
      <trkpt lat="44.55316" lon="5.70134">
        <ele>1517.07</ele>
        <time>2019-10-26T12:14:43Z</time>
      </trkpt>
      <trkpt lat="44.55333" lon="5.70127">
        <ele>1515.36</ele>
        <time>2019-10-26T12:15:00Z</time>
      </trkpt>
      <trkpt lat="44.5534" lon="5.70126">
        <ele>1513.2</ele>
        <time>2019-10-26T12:15:07Z</time>
      </trkpt>
      <trkpt lat="44.55342" lon="5.70125">
        <ele>1512.28</ele>
        <time>2019-10-26T12:15:09Z</time>
      </trkpt>
      <trkpt lat="44.55347" lon="5.70117">
        <ele>1510.45</ele>
        <time>2019-10-26T12:15:26Z</time>
      </trkpt>
      <trkpt lat="44.55351" lon="5.70109">
        <ele>1508.7</ele>
        <time>2019-10-26T12:15:55Z</time>
      </trkpt>
      <trkpt lat="44.55366" lon="5.70104">
        <ele>1506.43</ele>
        <time>2019-10-26T12:16:13Z</time>
      </trkpt>
      <trkpt lat="44.55376" lon="5.70104">
        <ele>1502.18</ele>
        <time>2019-10-26T12:16:38Z</time>
      </trkpt>
      <trkpt lat="44.55386" lon="5.70101">
        <ele>1498.25</ele>
        <time>2019-10-26T12:16:55Z</time>
      </trkpt>
      <trkpt lat="44.55397" lon="5.701">
        <ele>1495.9</ele>
        <time>2019-10-26T12:17:14Z</time>
      </trkpt>
      <trkpt lat="44.55404" lon="5.70102">
        <ele>1494.48</ele>
        <time>2019-10-26T12:17:38Z</time>
      </trkpt>
      <trkpt lat="44.55419" lon="5.70101">
        <ele>1492.52</ele>
        <time>2019-10-26T12:17:58Z</time>
      </trkpt>
      <trkpt lat="44.55434" lon="5.70095">
        <ele>1491.25</ele>
        <time>2019-10-26T12:18:19Z</time>
      </trkpt>
      <trkpt lat="44.55437" lon="5.7009">
        <ele>1490.65</ele>
        <time>2019-10-26T12:18:27Z</time>
      </trkpt>
      <trkpt lat="44.55447" lon="5.7007">
        <ele>1487.5</ele>
        <time>2019-10-26T12:18:46Z</time>
      </trkpt>
      <trkpt lat="44.55457" lon="5.70066">
        <ele>1486.98</ele>
        <time>2019-10-26T12:19:07Z</time>
      </trkpt>
      <trkpt lat="44.5547" lon="5.70061">
        <ele>1485.29</ele>
        <time>2019-10-26T12:19:30Z</time>
      </trkpt>
      <trkpt lat="44.55474" lon="5.70063">
        <ele>1482.86</ele>
        <time>2019-10-26T12:19:44Z</time>
      </trkpt>
      <trkpt lat="44.55475" lon="5.70062">
        <ele>1476.64</ele>
        <time>2019-10-26T12:20:14Z</time>
      </trkpt>
      <trkpt lat="44.55484" lon="5.70066">
        <ele>1472.69</ele>
        <time>2019-10-26T12:20:42Z</time>
      </trkpt>
      <trkpt lat="44.55492" lon="5.7007">
        <ele>1467.25</ele>
        <time>2019-10-26T12:20:57Z</time>
      </trkpt>
      <trkpt lat="44.55487" lon="5.70079">
        <ele>1465.67</ele>
        <time>2019-10-26T12:21:10Z</time>
      </trkpt>
      <trkpt lat="44.55493" lon="5.70081">
        <ele>1459.13</ele>
        <time>2019-10-26T12:21:33Z</time>
      </trkpt>
      <trkpt lat="44.55499" lon="5.70082">
        <ele>1456.86</ele>
        <time>2019-10-26T12:21:56Z</time>
      </trkpt>
      <trkpt lat="44.555" lon="5.70084">
        <ele>1454.01</ele>
        <time>2019-10-26T12:22:23Z</time>
      </trkpt>
      <trkpt lat="44.55502" lon="5.70081">
        <ele>1452.47</ele>
        <time>2019-10-26T12:22:46Z</time>
      </trkpt>
      <trkpt lat="44.55501" lon="5.70076">
        <ele>1450.74</ele>
        <time>2019-10-26T12:23:10Z</time>
      </trkpt>
      <trkpt lat="44.55502" lon="5.70077">
        <ele>1449.75</ele>
        <time>2019-10-26T12:23:31Z</time>
      </trkpt>
      <trkpt lat="44.55503" lon="5.70074">
        <ele>1449.7</ele>
        <time>2019-10-26T12:23:34Z</time>
      </trkpt>
      <trkpt lat="44.55503" lon="5.70073">
        <ele>1449.07</ele>
        <time>2019-10-26T12:23:44Z</time>
      </trkpt>
      <trkpt lat="44.55503" lon="5.70079">
        <ele>1447.61</ele>
        <time>2019-10-26T12:24:02Z</time>
      </trkpt>
      <trkpt lat="44.55503" lon="5.70075">
        <ele>1446.33</ele>
        <time>2019-10-26T12:24:20Z</time>
      </trkpt>
      <trkpt lat="44.55501" lon="5.70074">
        <ele>1445.24</ele>
        <time>2019-10-26T12:24:39Z</time>
      </trkpt>
      <trkpt lat="44.55499" lon="5.70072">
        <ele>1445.44</ele>
        <time>2019-10-26T12:24:53Z</time>
      </trkpt>
      <trkpt lat="44.55496" lon="5.70082">
        <ele>1446.4</ele>
        <time>2019-10-26T12:25:08Z</time>
      </trkpt>
      <trkpt lat="44.55491" lon="5.70086">
        <ele>1446.94</ele>
        <time>2019-10-26T12:25:15Z</time>
      </trkpt>
      <trkpt lat="44.55475" lon="5.70114">
        <ele>1448.08</ele>
        <time>2019-10-26T12:25:36Z</time>
      </trkpt>
      <trkpt lat="44.55461" lon="5.70143">
        <ele>1451.83</ele>
        <time>2019-10-26T12:25:58Z</time>
      </trkpt>
      <trkpt lat="44.55445" lon="5.7017">
        <ele>1453.92</ele>
        <time>2019-10-26T12:26:19Z</time>
      </trkpt>
      <trkpt lat="44.55434" lon="5.70187">
        <ele>1456.12</ele>
        <time>2019-10-26T12:26:33Z</time>
      </trkpt>
      <trkpt lat="44.55422" lon="5.70213">
        <ele>1457.84</ele>
        <time>2019-10-26T12:26:51Z</time>
      </trkpt>
      <trkpt lat="44.55409" lon="5.70241">
        <ele>1458.67</ele>
        <time>2019-10-26T12:27:10Z</time>
      </trkpt>
      <trkpt lat="44.55395" lon="5.70266">
        <ele>1458.52</ele>
        <time>2019-10-26T12:27:30Z</time>
      </trkpt>
      <trkpt lat="44.5539" lon="5.70271">
        <ele>1458.63</ele>
        <time>2019-10-26T12:27:34Z</time>
      </trkpt>
      <trkpt lat="44.55376" lon="5.70282">
        <ele>1458.48</ele>
        <time>2019-10-26T12:27:48Z</time>
      </trkpt>
      <trkpt lat="44.55364" lon="5.70298">
        <ele>1458.6</ele>
        <time>2019-10-26T12:28:00Z</time>
      </trkpt>
      <trkpt lat="44.55362" lon="5.703">
        <ele>1458.57</ele>
        <time>2019-10-26T12:28:02Z</time>
      </trkpt>
      <trkpt lat="44.5536" lon="5.70305">
        <ele>1458.87</ele>
        <time>2019-10-26T12:28:05Z</time>
      </trkpt>
      <trkpt lat="44.55357" lon="5.70313">
        <ele>1457.95</ele>
        <time>2019-10-26T12:28:11Z</time>
      </trkpt>
      <trkpt lat="44.55353" lon="5.70318">
        <ele>1457.25</ele>
        <time>2019-10-26T12:28:15Z</time>
      </trkpt>
      <trkpt lat="44.55343" lon="5.70334">
        <ele>1456.95</ele>
        <time>2019-10-26T12:28:27Z</time>
      </trkpt>
      <trkpt lat="44.55332" lon="5.70355">
        <ele>1455.29</ele>
        <time>2019-10-26T12:28:41Z</time>
      </trkpt>
      <trkpt lat="44.55331" lon="5.70359">
        <ele>1456.19</ele>
        <time>2019-10-26T12:28:44Z</time>
      </trkpt>
      <trkpt lat="44.55323" lon="5.7037">
        <ele>1451.99</ele>
        <time>2019-10-26T12:29:02Z</time>
      </trkpt>
      <trkpt lat="44.553" lon="5.704">
        <ele>1446.75</ele>
        <time>2019-10-26T12:29:26Z</time>
      </trkpt>
      <trkpt lat="44.55278" lon="5.70424">
        <ele>1443.49</ele>
        <time>2019-10-26T12:29:51Z</time>
      </trkpt>
      <trkpt lat="44.55252" lon="5.70449">
        <ele>1440.02</ele>
        <time>2019-10-26T12:30:14Z</time>
      </trkpt>
      <trkpt lat="44.55239" lon="5.70455">
        <ele>1434.7</ele>
        <time>2019-10-26T12:30:21Z</time>
      </trkpt>
      <trkpt lat="44.55224" lon="5.70466">
        <ele>1431.95</ele>
        <time>2019-10-26T12:30:34Z</time>
      </trkpt>
      <trkpt lat="44.55216" lon="5.70477">
        <ele>1432.43</ele>
        <time>2019-10-26T12:30:43Z</time>
      </trkpt>
      <trkpt lat="44.55209" lon="5.7049">
        <ele>1432.11</ele>
        <time>2019-10-26T12:30:54Z</time>
      </trkpt>
      <trkpt lat="44.55195" lon="5.70501">
        <ele>1432.98</ele>
        <time>2019-10-26T12:31:14Z</time>
      </trkpt>
      <trkpt lat="44.55171" lon="5.70514">
        <ele>1436.03</ele>
        <time>2019-10-26T12:31:38Z</time>
      </trkpt>
      <trkpt lat="44.5515" lon="5.70527">
        <ele>1439.09</ele>
        <time>2019-10-26T12:31:59Z</time>
      </trkpt>
      <trkpt lat="44.5513" lon="5.7054">
        <ele>1441.36</ele>
        <time>2019-10-26T12:32:14Z</time>
      </trkpt>
      <trkpt lat="44.55123" lon="5.70546">
        <ele>1442.24</ele>
        <time>2019-10-26T12:32:19Z</time>
      </trkpt>
      <trkpt lat="44.55113" lon="5.70561">
        <ele>1445.21</ele>
        <time>2019-10-26T12:32:34Z</time>
      </trkpt>
      <trkpt lat="44.5511" lon="5.70562">
        <ele>1445.27</ele>
        <time>2019-10-26T12:32:35Z</time>
      </trkpt>
      <trkpt lat="44.55097" lon="5.70572">
        <ele>1445.48</ele>
        <time>2019-10-26T12:32:48Z</time>
      </trkpt>
      <trkpt lat="44.55073" lon="5.70581">
        <ele>1447.25</ele>
        <time>2019-10-26T12:33:07Z</time>
      </trkpt>
      <trkpt lat="44.55072" lon="5.70581">
        <ele>1447.33</ele>
        <time>2019-10-26T12:33:08Z</time>
      </trkpt>
      <trkpt lat="44.5506" lon="5.70588">
        <ele>1448.08</ele>
        <time>2019-10-26T12:33:23Z</time>
      </trkpt>
      <trkpt lat="44.55059" lon="5.70601">
        <ele>1447.85</ele>
        <time>2019-10-26T12:33:43Z</time>
      </trkpt>
      <trkpt lat="44.55054" lon="5.70616">
        <ele>1448.03</ele>
        <time>2019-10-26T12:33:53Z</time>
      </trkpt>
      <trkpt lat="44.55057" lon="5.70628">
        <ele>1446.99</ele>
        <time>2019-10-26T12:33:58Z</time>
      </trkpt>
      <trkpt lat="44.5506" lon="5.70672">
        <ele>1435.51</ele>
        <time>2019-10-26T12:34:18Z</time>
      </trkpt>
      <trkpt lat="44.55057" lon="5.70678">
        <ele>1434.67</ele>
        <time>2019-10-26T12:34:24Z</time>
      </trkpt>
      <trkpt lat="44.55051" lon="5.70701">
        <ele>1432.75</ele>
        <time>2019-10-26T12:34:33Z</time>
      </trkpt>
      <trkpt lat="44.55037" lon="5.70726">
        <ele>1426.82</ele>
        <time>2019-10-26T12:34:48Z</time>
      </trkpt>
      <trkpt lat="44.55025" lon="5.70742">
        <ele>1425.66</ele>
        <time>2019-10-26T12:34:58Z</time>
      </trkpt>
      <trkpt lat="44.55024" lon="5.70743">
        <ele>1425.64</ele>
        <time>2019-10-26T12:34:59Z</time>
      </trkpt>
      <trkpt lat="44.55022" lon="5.70744">
        <ele>1425.62</ele>
        <time>2019-10-26T12:35:00Z</time>
      </trkpt>
      <trkpt lat="44.55022" lon="5.70745">
        <ele>1425.57</ele>
        <time>2019-10-26T12:35:01Z</time>
      </trkpt>
      <trkpt lat="44.55021" lon="5.70748">
        <ele>1425.51</ele>
        <time>2019-10-26T12:35:04Z</time>
      </trkpt>
      <trkpt lat="44.55017" lon="5.70752">
        <ele>1425.15</ele>
        <time>2019-10-26T12:35:10Z</time>
      </trkpt>
      <trkpt lat="44.55016" lon="5.70752">
        <ele>1425.1</ele>
        <time>2019-10-26T12:35:11Z</time>
      </trkpt>
      <trkpt lat="44.55015" lon="5.70752">
        <ele>1425.04</ele>
        <time>2019-10-26T12:35:12Z</time>
      </trkpt>
      <trkpt lat="44.55014" lon="5.70752">
        <ele>1425.04</ele>
        <time>2019-10-26T12:35:13Z</time>
      </trkpt>
      <trkpt lat="44.55012" lon="5.70752">
        <ele>1425</ele>
        <time>2019-10-26T12:35:14Z</time>
      </trkpt>
      <trkpt lat="44.55011" lon="5.70753">
        <ele>1425.01</ele>
        <time>2019-10-26T12:35:15Z</time>
      </trkpt>
      <trkpt lat="44.55007" lon="5.70754">
        <ele>1425.32</ele>
        <time>2019-10-26T12:35:18Z</time>
      </trkpt>
      <trkpt lat="44.54991" lon="5.7076">
        <ele>1428.89</ele>
        <time>2019-10-26T12:35:32Z</time>
      </trkpt>
      <trkpt lat="44.54987" lon="5.70766">
        <ele>1429.33</ele>
        <time>2019-10-26T12:35:36Z</time>
      </trkpt>
      <trkpt lat="44.54994" lon="5.70785">
        <ele>1430.96</ele>
        <time>2019-10-26T12:35:49Z</time>
      </trkpt>
      <trkpt lat="44.55005" lon="5.70782">
        <ele>1436.28</ele>
        <time>2019-10-26T12:36:09Z</time>
      </trkpt>
      <trkpt lat="44.55013" lon="5.70778">
        <ele>1438.66</ele>
        <time>2019-10-26T12:36:19Z</time>
      </trkpt>
      <trkpt lat="44.55029" lon="5.70765">
        <ele>1443.15</ele>
        <time>2019-10-26T12:36:35Z</time>
      </trkpt>
      <trkpt lat="44.55063" lon="5.70745">
        <ele>1441.45</ele>
        <time>2019-10-26T12:36:55Z</time>
      </trkpt>
      <trkpt lat="44.5508" lon="5.70728">
        <ele>1443.29</ele>
        <time>2019-10-26T12:37:13Z</time>
      </trkpt>
      <trkpt lat="44.55081" lon="5.70726">
        <ele>1443.39</ele>
        <time>2019-10-26T12:37:15Z</time>
      </trkpt>
      <trkpt lat="44.55107" lon="5.707">
        <ele>1438.84</ele>
        <time>2019-10-26T12:37:33Z</time>
      </trkpt>
      <trkpt lat="44.55118" lon="5.7067">
        <ele>1429.79</ele>
        <time>2019-10-26T12:37:53Z</time>
      </trkpt>
      <trkpt lat="44.55116" lon="5.70667">
        <ele>1428.74</ele>
        <time>2019-10-26T12:37:57Z</time>
      </trkpt>
      <trkpt lat="44.55097" lon="5.70662">
        <ele>1423.27</ele>
        <time>2019-10-26T12:38:21Z</time>
      </trkpt>
      <trkpt lat="44.55103" lon="5.70654">
        <ele>1423.1</ele>
        <time>2019-10-26T12:38:40Z</time>
      </trkpt>
      <trkpt lat="44.55113" lon="5.70644">
        <ele>1424.47</ele>
        <time>2019-10-26T12:39:00Z</time>
      </trkpt>
      <trkpt lat="44.5514" lon="5.70627">
        <ele>1426.81</ele>
        <time>2019-10-26T12:39:22Z</time>
      </trkpt>
      <trkpt lat="44.55157" lon="5.70617">
        <ele>1426.83</ele>
        <time>2019-10-26T12:39:42Z</time>
      </trkpt>
      <trkpt lat="44.55164" lon="5.70616">
        <ele>1426.9</ele>
        <time>2019-10-26T12:39:54Z</time>
      </trkpt>
      <trkpt lat="44.55195" lon="5.70609">
        <ele>1428</ele>
        <time>2019-10-26T12:40:17Z</time>
      </trkpt>
      <trkpt lat="44.55205" lon="5.70605">
        <ele>1428.37</ele>
        <time>2019-10-26T12:40:23Z</time>
      </trkpt>
      <trkpt lat="44.55216" lon="5.70595">
        <ele>1431.84</ele>
        <time>2019-10-26T12:40:36Z</time>
      </trkpt>
      <trkpt lat="44.55218" lon="5.70594">
        <ele>1432.72</ele>
        <time>2019-10-26T12:40:39Z</time>
      </trkpt>
      <trkpt lat="44.55237" lon="5.70578">
        <ele>1436.15</ele>
        <time>2019-10-26T12:40:55Z</time>
      </trkpt>
      <trkpt lat="44.5527" lon="5.70553">
        <ele>1435.72</ele>
        <time>2019-10-26T12:41:18Z</time>
      </trkpt>
      <trkpt lat="44.553" lon="5.70533">
        <ele>1429.8</ele>
        <time>2019-10-26T12:41:40Z</time>
      </trkpt>
      <trkpt lat="44.5532" lon="5.70519">
        <ele>1420.89</ele>
        <time>2019-10-26T12:42:05Z</time>
      </trkpt>
      <trkpt lat="44.55335" lon="5.70511">
        <ele>1416.45</ele>
        <time>2019-10-26T12:42:26Z</time>
      </trkpt>
      <trkpt lat="44.55355" lon="5.70498">
        <ele>1414.02</ele>
        <time>2019-10-26T12:42:47Z</time>
      </trkpt>
      <trkpt lat="44.55377" lon="5.70478">
        <ele>1411.88</ele>
        <time>2019-10-26T12:43:11Z</time>
      </trkpt>
      <trkpt lat="44.55397" lon="5.70466">
        <ele>1409.65</ele>
        <time>2019-10-26T12:43:33Z</time>
      </trkpt>
      <trkpt lat="44.55417" lon="5.70455">
        <ele>1409.4</ele>
        <time>2019-10-26T12:43:52Z</time>
      </trkpt>
      <trkpt lat="44.55427" lon="5.70446">
        <ele>1411.89</ele>
        <time>2019-10-26T12:44:08Z</time>
      </trkpt>
      <trkpt lat="44.55428" lon="5.70441">
        <ele>1410.61</ele>
        <time>2019-10-26T12:44:19Z</time>
      </trkpt>
      <trkpt lat="44.55444" lon="5.70434">
        <ele>1407.09</ele>
        <time>2019-10-26T12:44:34Z</time>
      </trkpt>
      <trkpt lat="44.55453" lon="5.7043">
        <ele>1405.63</ele>
        <time>2019-10-26T12:44:41Z</time>
      </trkpt>
      <trkpt lat="44.55467" lon="5.70422">
        <ele>1403.55</ele>
        <time>2019-10-26T12:44:55Z</time>
      </trkpt>
      <trkpt lat="44.55488" lon="5.70407">
        <ele>1403.81</ele>
        <time>2019-10-26T12:45:16Z</time>
      </trkpt>
      <trkpt lat="44.55502" lon="5.70393">
        <ele>1401.45</ele>
        <time>2019-10-26T12:45:33Z</time>
      </trkpt>
      <trkpt lat="44.55515" lon="5.7038">
        <ele>1400.86</ele>
        <time>2019-10-26T12:45:52Z</time>
      </trkpt>
      <trkpt lat="44.55534" lon="5.7036">
        <ele>1397.86</ele>
        <time>2019-10-26T12:46:11Z</time>
      </trkpt>
      <trkpt lat="44.55559" lon="5.70343">
        <ele>1392.84</ele>
        <time>2019-10-26T12:46:33Z</time>
      </trkpt>
      <trkpt lat="44.5558" lon="5.70325">
        <ele>1391.44</ele>
        <time>2019-10-26T12:46:55Z</time>
      </trkpt>
      <trkpt lat="44.55614" lon="5.70309">
        <ele>1387.07</ele>
        <time>2019-10-26T12:47:13Z</time>
      </trkpt>
      <trkpt lat="44.55626" lon="5.70298">
        <ele>1379.91</ele>
        <time>2019-10-26T12:47:30Z</time>
      </trkpt>
      <trkpt lat="44.55637" lon="5.70287">
        <ele>1376.63</ele>
        <time>2019-10-26T12:47:49Z</time>
      </trkpt>
      <trkpt lat="44.55639" lon="5.70284">
        <ele>1375.92</ele>
        <time>2019-10-26T12:47:53Z</time>
      </trkpt>
      <trkpt lat="44.55652" lon="5.70275">
        <ele>1373.11</ele>
        <time>2019-10-26T12:48:08Z</time>
      </trkpt>
      <trkpt lat="44.55662" lon="5.70268">
        <ele>1369.83</ele>
        <time>2019-10-26T12:48:16Z</time>
      </trkpt>
      <trkpt lat="44.55677" lon="5.70261">
        <ele>1368.25</ele>
        <time>2019-10-26T12:48:26Z</time>
      </trkpt>
      <trkpt lat="44.55683" lon="5.70258">
        <ele>1367.55</ele>
        <time>2019-10-26T12:48:30Z</time>
      </trkpt>
      <trkpt lat="44.55703" lon="5.70244">
        <ele>1361.72</ele>
        <time>2019-10-26T12:48:50Z</time>
      </trkpt>
      <trkpt lat="44.55708" lon="5.70237">
        <ele>1361.52</ele>
        <time>2019-10-26T12:48:57Z</time>
      </trkpt>
      <trkpt lat="44.55717" lon="5.70225">
        <ele>1358.87</ele>
        <time>2019-10-26T12:49:02Z</time>
      </trkpt>
      <trkpt lat="44.55719" lon="5.70222">
        <ele>1358.75</ele>
        <time>2019-10-26T12:49:03Z</time>
      </trkpt>
      <trkpt lat="44.55722" lon="5.70219">
        <ele>1358.5</ele>
        <time>2019-10-26T12:49:04Z</time>
      </trkpt>
      <trkpt lat="44.55726" lon="5.70216">
        <ele>1358.29</ele>
        <time>2019-10-26T12:49:05Z</time>
      </trkpt>
      <trkpt lat="44.55728" lon="5.70214">
        <ele>1358.08</ele>
        <time>2019-10-26T12:49:06Z</time>
      </trkpt>
      <trkpt lat="44.55756" lon="5.7018">
        <ele>1352.44</ele>
        <time>2019-10-26T12:49:17Z</time>
      </trkpt>
      <trkpt lat="44.55794" lon="5.70137">
        <ele>1335.84</ele>
        <time>2019-10-26T12:49:29Z</time>
      </trkpt>
      <trkpt lat="44.55805" lon="5.70121">
        <ele>1330.76</ele>
        <time>2019-10-26T12:49:36Z</time>
      </trkpt>
      <trkpt lat="44.5581" lon="5.70112">
        <ele>1331</ele>
        <time>2019-10-26T12:49:44Z</time>
      </trkpt>
      <trkpt lat="44.55811" lon="5.70106">
        <ele>1331.99</ele>
        <time>2019-10-26T12:49:48Z</time>
      </trkpt>
      <trkpt lat="44.55812" lon="5.70097">
        <ele>1333.13</ele>
        <time>2019-10-26T12:49:53Z</time>
      </trkpt>
      <trkpt lat="44.55813" lon="5.70091">
        <ele>1332.43</ele>
        <time>2019-10-26T12:49:56Z</time>
      </trkpt>
      <trkpt lat="44.55814" lon="5.70089">
        <ele>1332.36</ele>
        <time>2019-10-26T12:49:57Z</time>
      </trkpt>
      <trkpt lat="44.55815" lon="5.70087">
        <ele>1332</ele>
        <time>2019-10-26T12:49:58Z</time>
      </trkpt>
      <trkpt lat="44.5582" lon="5.70073">
        <ele>1331.12</ele>
        <time>2019-10-26T12:50:10Z</time>
      </trkpt>
      <trkpt lat="44.55822" lon="5.70068">
        <ele>1331.24</ele>
        <time>2019-10-26T12:50:13Z</time>
      </trkpt>
      <trkpt lat="44.55837" lon="5.70044">
        <ele>1329.12</ele>
        <time>2019-10-26T12:50:29Z</time>
      </trkpt>
      <trkpt lat="44.55832" lon="5.70033">
        <ele>1327.56</ele>
        <time>2019-10-26T12:50:49Z</time>
      </trkpt>
      <trkpt lat="44.55832" lon="5.70031">
        <ele>1327.69</ele>
        <time>2019-10-26T12:50:51Z</time>
      </trkpt>
      <trkpt lat="44.5583" lon="5.70016">
        <ele>1325.82</ele>
        <time>2019-10-26T12:51:01Z</time>
      </trkpt>
      <trkpt lat="44.55839" lon="5.70003">
        <ele>1324.5</ele>
        <time>2019-10-26T12:51:13Z</time>
      </trkpt>
      <trkpt lat="44.5584" lon="5.70002">
        <ele>1324.28</ele>
        <time>2019-10-26T12:51:14Z</time>
      </trkpt>
      <trkpt lat="44.5584" lon="5.7">
        <ele>1324.05</ele>
        <time>2019-10-26T12:51:15Z</time>
      </trkpt>
      <trkpt lat="44.55843" lon="5.69993">
        <ele>1323.09</ele>
        <time>2019-10-26T12:51:20Z</time>
      </trkpt>
      <trkpt lat="44.55844" lon="5.69992">
        <ele>1322.95</ele>
        <time>2019-10-26T12:51:21Z</time>
      </trkpt>
      <trkpt lat="44.55845" lon="5.6999">
        <ele>1322.79</ele>
        <time>2019-10-26T12:51:22Z</time>
      </trkpt>
      <trkpt lat="44.5585" lon="5.69978">
        <ele>1321.26</ele>
        <time>2019-10-26T12:51:30Z</time>
      </trkpt>
      <trkpt lat="44.55851" lon="5.69965">
        <ele>1319.16</ele>
        <time>2019-10-26T12:51:37Z</time>
      </trkpt>
      <trkpt lat="44.55845" lon="5.69936">
        <ele>1313.43</ele>
        <time>2019-10-26T12:51:50Z</time>
      </trkpt>
      <trkpt lat="44.55836" lon="5.69934">
        <ele>1311.43</ele>
        <time>2019-10-26T12:52:07Z</time>
      </trkpt>
      <trkpt lat="44.55835" lon="5.69942">
        <ele>1309.38</ele>
        <time>2019-10-26T12:52:29Z</time>
      </trkpt>
      <trkpt lat="44.55841" lon="5.69954">
        <ele>1305.94</ele>
        <time>2019-10-26T12:52:43Z</time>
      </trkpt>
      <trkpt lat="44.55846" lon="5.69958">
        <ele>1304.77</ele>
        <time>2019-10-26T12:52:47Z</time>
      </trkpt>
      <trkpt lat="44.55847" lon="5.6996">
        <ele>1304.4</ele>
        <time>2019-10-26T12:52:49Z</time>
      </trkpt>
      <trkpt lat="44.55855" lon="5.69967">
        <ele>1302.77</ele>
        <time>2019-10-26T12:52:58Z</time>
      </trkpt>
      <trkpt lat="44.55863" lon="5.69975">
        <ele>1300.97</ele>
        <time>2019-10-26T12:53:05Z</time>
      </trkpt>
      <trkpt lat="44.55865" lon="5.69978">
        <ele>1300.02</ele>
        <time>2019-10-26T12:53:08Z</time>
      </trkpt>
      <trkpt lat="44.55867" lon="5.69982">
        <ele>1299.43</ele>
        <time>2019-10-26T12:53:09Z</time>
      </trkpt>
      <trkpt lat="44.5587" lon="5.69984">
        <ele>1298.84</ele>
        <time>2019-10-26T12:53:10Z</time>
      </trkpt>
      <trkpt lat="44.55871" lon="5.69986">
        <ele>1298.52</ele>
        <time>2019-10-26T12:53:11Z</time>
      </trkpt>
      <trkpt lat="44.55873" lon="5.69987">
        <ele>1297.96</ele>
        <time>2019-10-26T12:53:12Z</time>
      </trkpt>
      <trkpt lat="44.55875" lon="5.6999">
        <ele>1297.35</ele>
        <time>2019-10-26T12:53:14Z</time>
      </trkpt>
      <trkpt lat="44.55875" lon="5.69992">
        <ele>1297.06</ele>
        <time>2019-10-26T12:53:15Z</time>
      </trkpt>
      <trkpt lat="44.55878" lon="5.69998">
        <ele>1295.39</ele>
        <time>2019-10-26T12:53:17Z</time>
      </trkpt>
      <trkpt lat="44.5588" lon="5.7">
        <ele>1294.6</ele>
        <time>2019-10-26T12:53:18Z</time>
      </trkpt>
      <trkpt lat="44.55881" lon="5.70003">
        <ele>1293.74</ele>
        <time>2019-10-26T12:53:19Z</time>
      </trkpt>
      <trkpt lat="44.55883" lon="5.70005">
        <ele>1292.79</ele>
        <time>2019-10-26T12:53:20Z</time>
      </trkpt>
      <trkpt lat="44.55884" lon="5.70006">
        <ele>1292.26</ele>
        <time>2019-10-26T12:53:21Z</time>
      </trkpt>
      <trkpt lat="44.55885" lon="5.70008">
        <ele>1291.63</ele>
        <time>2019-10-26T12:53:22Z</time>
      </trkpt>
      <trkpt lat="44.55886" lon="5.70009">
        <ele>1291.07</ele>
        <time>2019-10-26T12:53:23Z</time>
      </trkpt>
      <trkpt lat="44.55887" lon="5.70011">
        <ele>1290.31</ele>
        <time>2019-10-26T12:53:24Z</time>
      </trkpt>
      <trkpt lat="44.55891" lon="5.70021">
        <ele>1283.17</ele>
        <time>2019-10-26T12:53:37Z</time>
      </trkpt>
      <trkpt lat="44.55891" lon="5.70022">
        <ele>1281.6</ele>
        <time>2019-10-26T12:53:54Z</time>
      </trkpt>
      <trkpt lat="44.55896" lon="5.70036">
        <ele>1279.78</ele>
        <time>2019-10-26T12:54:07Z</time>
      </trkpt>
      <trkpt lat="44.55909" lon="5.70066">
        <ele>1276.65</ele>
        <time>2019-10-26T12:54:28Z</time>
      </trkpt>
      <trkpt lat="44.55916" lon="5.70083">
        <ele>1274.46</ele>
        <time>2019-10-26T12:54:40Z</time>
      </trkpt>
      <trkpt lat="44.5593" lon="5.70106">
        <ele>1271.4</ele>
        <time>2019-10-26T12:54:56Z</time>
      </trkpt>
      <trkpt lat="44.55941" lon="5.70123">
        <ele>1268.19</ele>
        <time>2019-10-26T12:55:08Z</time>
      </trkpt>
      <trkpt lat="44.55942" lon="5.70127">
        <ele>1267.92</ele>
        <time>2019-10-26T12:55:10Z</time>
      </trkpt>
      <trkpt lat="44.55943" lon="5.70131">
        <ele>1267.35</ele>
        <time>2019-10-26T12:55:12Z</time>
      </trkpt>
      <trkpt lat="44.55944" lon="5.70133">
        <ele>1267.05</ele>
        <time>2019-10-26T12:55:13Z</time>
      </trkpt>
      <trkpt lat="44.55949" lon="5.70145">
        <ele>1264.41</ele>
        <time>2019-10-26T12:55:21Z</time>
      </trkpt>
      <trkpt lat="44.5595" lon="5.70147">
        <ele>1263.67</ele>
        <time>2019-10-26T12:55:23Z</time>
      </trkpt>
      <trkpt lat="44.5595" lon="5.70149">
        <ele>1263.35</ele>
        <time>2019-10-26T12:55:24Z</time>
      </trkpt>
      <trkpt lat="44.55954" lon="5.7015">
        <ele>1260.49</ele>
        <time>2019-10-26T12:55:31Z</time>
      </trkpt>
      <trkpt lat="44.55954" lon="5.70149">
        <ele>1260.03</ele>
        <time>2019-10-26T12:55:32Z</time>
      </trkpt>
      <trkpt lat="44.55956" lon="5.70147">
        <ele>1257.25</ele>
        <time>2019-10-26T12:55:38Z</time>
      </trkpt>
      <trkpt lat="44.55968" lon="5.70141">
        <ele>1254.3</ele>
        <time>2019-10-26T12:56:01Z</time>
      </trkpt>
      <trkpt lat="44.55969" lon="5.7014">
        <ele>1254.15</ele>
        <time>2019-10-26T12:56:02Z</time>
      </trkpt>
      <trkpt lat="44.5597" lon="5.70139">
        <ele>1254.01</ele>
        <time>2019-10-26T12:56:03Z</time>
      </trkpt>
      <trkpt lat="44.55969" lon="5.70134">
        <ele>1253.63</ele>
        <time>2019-10-26T12:56:06Z</time>
      </trkpt>
      <trkpt lat="44.55973" lon="5.70108">
        <ele>1251.68</ele>
        <time>2019-10-26T12:56:23Z</time>
      </trkpt>
      <trkpt lat="44.55977" lon="5.70082">
        <ele>1250.31</ele>
        <time>2019-10-26T12:56:39Z</time>
      </trkpt>
      <trkpt lat="44.55977" lon="5.70078">
        <ele>1249.82</ele>
        <time>2019-10-26T12:56:42Z</time>
      </trkpt>
      <trkpt lat="44.55975" lon="5.70076">
        <ele>1249.27</ele>
        <time>2019-10-26T12:56:59Z</time>
      </trkpt>
      <trkpt lat="44.55976" lon="5.70071">
        <ele>1248.15</ele>
        <time>2019-10-26T12:57:17Z</time>
      </trkpt>
      <trkpt lat="44.55978" lon="5.70074">
        <ele>1245.13</ele>
        <time>2019-10-26T12:57:38Z</time>
      </trkpt>
      <trkpt lat="44.55988" lon="5.70092">
        <ele>1241.3</ele>
        <time>2019-10-26T12:57:55Z</time>
      </trkpt>
      <trkpt lat="44.55992" lon="5.70101">
        <ele>1239.45</ele>
        <time>2019-10-26T12:58:09Z</time>
      </trkpt>
      <trkpt lat="44.55999" lon="5.70112">
        <ele>1238.14</ele>
        <time>2019-10-26T12:58:20Z</time>
      </trkpt>
      <trkpt lat="44.56004" lon="5.70118">
        <ele>1237.08</ele>
        <time>2019-10-26T12:58:36Z</time>
      </trkpt>
      <trkpt lat="44.56006" lon="5.7012">
        <ele>1236.75</ele>
        <time>2019-10-26T12:58:38Z</time>
      </trkpt>
      <trkpt lat="44.56016" lon="5.7014">
        <ele>1234.68</ele>
        <time>2019-10-26T12:58:57Z</time>
      </trkpt>
      <trkpt lat="44.56017" lon="5.70142">
        <ele>1234.48</ele>
        <time>2019-10-26T12:58:58Z</time>
      </trkpt>
      <trkpt lat="44.56019" lon="5.70144">
        <ele>1234.38</ele>
        <time>2019-10-26T12:58:59Z</time>
      </trkpt>
      <trkpt lat="44.56029" lon="5.7014">
        <ele>1232.17</ele>
        <time>2019-10-26T12:59:10Z</time>
      </trkpt>
      <trkpt lat="44.56041" lon="5.70126">
        <ele>1229.01</ele>
        <time>2019-10-26T12:59:21Z</time>
      </trkpt>
      <trkpt lat="44.56048" lon="5.7011">
        <ele>1224.98</ele>
        <time>2019-10-26T12:59:38Z</time>
      </trkpt>
      <trkpt lat="44.5605" lon="5.70107">
        <ele>1224.38</ele>
        <time>2019-10-26T12:59:40Z</time>
      </trkpt>
      <trkpt lat="44.56055" lon="5.70091">
        <ele>1221.08</ele>
        <time>2019-10-26T12:59:55Z</time>
      </trkpt>
      <trkpt lat="44.56057" lon="5.70077">
        <ele>1219.52</ele>
        <time>2019-10-26T13:00:10Z</time>
      </trkpt>
      <trkpt lat="44.56062" lon="5.70062">
        <ele>1217.36</ele>
        <time>2019-10-26T13:00:22Z</time>
      </trkpt>
      <trkpt lat="44.56063" lon="5.70052">
        <ele>1216.4</ele>
        <time>2019-10-26T13:00:28Z</time>
      </trkpt>
      <trkpt lat="44.56066" lon="5.70043">
        <ele>1215.51</ele>
        <time>2019-10-26T13:00:33Z</time>
      </trkpt>
      <trkpt lat="44.56066" lon="5.70031">
        <ele>1213.17</ele>
        <time>2019-10-26T13:00:40Z</time>
      </trkpt>
      <trkpt lat="44.56077" lon="5.70013">
        <ele>1206.83</ele>
        <time>2019-10-26T13:00:57Z</time>
      </trkpt>
      <trkpt lat="44.56085" lon="5.70004">
        <ele>1200.52</ele>
        <time>2019-10-26T13:01:21Z</time>
      </trkpt>
      <trkpt lat="44.5609" lon="5.70013">
        <ele>1197.87</ele>
        <time>2019-10-26T13:01:39Z</time>
      </trkpt>
      <trkpt lat="44.5609" lon="5.70006">
        <ele>1197.24</ele>
        <time>2019-10-26T13:01:54Z</time>
      </trkpt>
      <trkpt lat="44.56095" lon="5.70012">
        <ele>1195.89</ele>
        <time>2019-10-26T13:02:13Z</time>
      </trkpt>
      <trkpt lat="44.56103" lon="5.70014">
        <ele>1193.79</ele>
        <time>2019-10-26T13:02:31Z</time>
      </trkpt>
      <trkpt lat="44.56109" lon="5.70011">
        <ele>1192.74</ele>
        <time>2019-10-26T13:02:48Z</time>
      </trkpt>
      <trkpt lat="44.56111" lon="5.70007">
        <ele>1190.71</ele>
        <time>2019-10-26T13:03:10Z</time>
      </trkpt>
      <trkpt lat="44.56116" lon="5.70009">
        <ele>1189.37</ele>
        <time>2019-10-26T13:03:28Z</time>
      </trkpt>
      <trkpt lat="44.5611" lon="5.70017">
        <ele>1188.6</ele>
        <time>2019-10-26T13:03:54Z</time>
      </trkpt>
      <trkpt lat="44.56111" lon="5.70018">
        <ele>1188.64</ele>
        <time>2019-10-26T13:03:55Z</time>
      </trkpt>
      <trkpt lat="44.56116" lon="5.70041">
        <ele>1186.35</ele>
        <time>2019-10-26T13:04:15Z</time>
      </trkpt>
      <trkpt lat="44.56126" lon="5.7007">
        <ele>1182.27</ele>
        <time>2019-10-26T13:04:35Z</time>
      </trkpt>
      <trkpt lat="44.56131" lon="5.70074">
        <ele>1181.5</ele>
        <time>2019-10-26T13:04:38Z</time>
      </trkpt>
      <trkpt lat="44.56132" lon="5.70077">
        <ele>1180.99</ele>
        <time>2019-10-26T13:04:40Z</time>
      </trkpt>
      <trkpt lat="44.56136" lon="5.70086">
        <ele>1179.67</ele>
        <time>2019-10-26T13:04:45Z</time>
      </trkpt>
      <trkpt lat="44.56143" lon="5.70103">
        <ele>1176.53</ele>
        <time>2019-10-26T13:04:55Z</time>
      </trkpt>
      <trkpt lat="44.56143" lon="5.70105">
        <ele>1176.19</ele>
        <time>2019-10-26T13:04:56Z</time>
      </trkpt>
      <trkpt lat="44.56144" lon="5.70113">
        <ele>1174.72</ele>
        <time>2019-10-26T13:05:00Z</time>
      </trkpt>
      <trkpt lat="44.56147" lon="5.70116">
        <ele>1173.67</ele>
        <time>2019-10-26T13:05:03Z</time>
      </trkpt>
      <trkpt lat="44.56149" lon="5.70127">
        <ele>1171.25</ele>
        <time>2019-10-26T13:05:09Z</time>
      </trkpt>
      <trkpt lat="44.56157" lon="5.70144">
        <ele>1167.66</ele>
        <time>2019-10-26T13:05:18Z</time>
      </trkpt>
      <trkpt lat="44.56162" lon="5.70153">
        <ele>1165.04</ele>
        <time>2019-10-26T13:05:23Z</time>
      </trkpt>
      <trkpt lat="44.56171" lon="5.70168">
        <ele>1159.59</ele>
        <time>2019-10-26T13:05:35Z</time>
      </trkpt>
      <trkpt lat="44.56181" lon="5.70183">
        <ele>1154.01</ele>
        <time>2019-10-26T13:05:45Z</time>
      </trkpt>
      <trkpt lat="44.56192" lon="5.70213">
        <ele>1143.94</ele>
        <time>2019-10-26T13:06:03Z</time>
      </trkpt>
      <trkpt lat="44.56196" lon="5.7023">
        <ele>1135.39</ele>
        <time>2019-10-26T13:06:16Z</time>
      </trkpt>
      <trkpt lat="44.56202" lon="5.70252">
        <ele>1127.54</ele>
        <time>2019-10-26T13:06:35Z</time>
      </trkpt>
      <trkpt lat="44.56205" lon="5.70274">
        <ele>1125.73</ele>
        <time>2019-10-26T13:06:55Z</time>
      </trkpt>
      <trkpt lat="44.56215" lon="5.703">
        <ele>1126.57</ele>
        <time>2019-10-26T13:07:15Z</time>
      </trkpt>
      <trkpt lat="44.56221" lon="5.70337">
        <ele>1126.77</ele>
        <time>2019-10-26T13:07:36Z</time>
      </trkpt>
      <trkpt lat="44.5623" lon="5.70385">
        <ele>1127.92</ele>
        <time>2019-10-26T13:07:58Z</time>
      </trkpt>
      <trkpt lat="44.56232" lon="5.7042">
        <ele>1128.13</ele>
        <time>2019-10-26T13:08:19Z</time>
      </trkpt>
      <trkpt lat="44.56233" lon="5.70424">
        <ele>1127.71</ele>
        <time>2019-10-26T13:08:21Z</time>
      </trkpt>
      <trkpt lat="44.56242" lon="5.7047">
        <ele>1120.91</ele>
        <time>2019-10-26T13:08:45Z</time>
      </trkpt>
      <trkpt lat="44.56251" lon="5.70496">
        <ele>1114.58</ele>
        <time>2019-10-26T13:09:03Z</time>
      </trkpt>
      <trkpt lat="44.56252" lon="5.705">
        <ele>1114.24</ele>
        <time>2019-10-26T13:09:05Z</time>
      </trkpt>
      <trkpt lat="44.56255" lon="5.705">
        <ele>1113.23</ele>
        <time>2019-10-26T13:09:09Z</time>
      </trkpt>
      <trkpt lat="44.56268" lon="5.70492">
        <ele>1105.34</ele>
        <time>2019-10-26T13:09:24Z</time>
      </trkpt>
      <trkpt lat="44.56278" lon="5.70503">
        <ele>1099.91</ele>
        <time>2019-10-26T13:09:43Z</time>
      </trkpt>
      <trkpt lat="44.56284" lon="5.7051">
        <ele>1097.07</ele>
        <time>2019-10-26T13:10:07Z</time>
      </trkpt>
      <trkpt lat="44.56285" lon="5.70515">
        <ele>1095.85</ele>
        <time>2019-10-26T13:10:12Z</time>
      </trkpt>
      <trkpt lat="44.56283" lon="5.70531">
        <ele>1093.96</ele>
        <time>2019-10-26T13:10:24Z</time>
      </trkpt>
      <trkpt lat="44.56276" lon="5.70557">
        <ele>1087.5</ele>
        <time>2019-10-26T13:10:44Z</time>
      </trkpt>
      <trkpt lat="44.56263" lon="5.70585">
        <ele>1085.73</ele>
        <time>2019-10-26T13:11:01Z</time>
      </trkpt>
      <trkpt lat="44.56255" lon="5.70614">
        <ele>1084.54</ele>
        <time>2019-10-26T13:11:16Z</time>
      </trkpt>
      <trkpt lat="44.56254" lon="5.70623">
        <ele>1083.13</ele>
        <time>2019-10-26T13:11:21Z</time>
      </trkpt>
      <trkpt lat="44.56252" lon="5.7063">
        <ele>1082.14</ele>
        <time>2019-10-26T13:11:25Z</time>
      </trkpt>
      <trkpt lat="44.56256" lon="5.7064">
        <ele>1078.2</ele>
        <time>2019-10-26T13:11:35Z</time>
      </trkpt>
      <trkpt lat="44.5626" lon="5.70649">
        <ele>1072.25</ele>
        <time>2019-10-26T13:12:00Z</time>
      </trkpt>
      <trkpt lat="44.56253" lon="5.70666">
        <ele>1071.49</ele>
        <time>2019-10-26T13:12:12Z</time>
      </trkpt>
      <trkpt lat="44.5625" lon="5.70674">
        <ele>1071.23</ele>
        <time>2019-10-26T13:12:19Z</time>
      </trkpt>
      <trkpt lat="44.56251" lon="5.707">
        <ele>1072.17</ele>
        <time>2019-10-26T13:12:33Z</time>
      </trkpt>
      <trkpt lat="44.56255" lon="5.70702">
        <ele>1071.01</ele>
        <time>2019-10-26T13:12:44Z</time>
      </trkpt>
      <trkpt lat="44.56259" lon="5.70698">
        <ele>1070.03</ele>
        <time>2019-10-26T13:12:59Z</time>
      </trkpt>
      <trkpt lat="44.56259" lon="5.70704">
        <ele>1068.89</ele>
        <time>2019-10-26T13:13:22Z</time>
      </trkpt>
      <trkpt lat="44.56256" lon="5.70714">
        <ele>1068.41</ele>
        <time>2019-10-26T13:13:35Z</time>
      </trkpt>
      <trkpt lat="44.56263" lon="5.70737">
        <ele>1068.35</ele>
        <time>2019-10-26T13:13:50Z</time>
      </trkpt>
      <trkpt lat="44.56267" lon="5.70757">
        <ele>1069.36</ele>
        <time>2019-10-26T13:14:05Z</time>
      </trkpt>
      <trkpt lat="44.56269" lon="5.7077">
        <ele>1070.78</ele>
        <time>2019-10-26T13:14:13Z</time>
      </trkpt>
      <trkpt lat="44.56271" lon="5.70783">
        <ele>1070.96</ele>
        <time>2019-10-26T13:14:20Z</time>
      </trkpt>
      <trkpt lat="44.56278" lon="5.70802">
        <ele>1067.44</ele>
        <time>2019-10-26T13:14:32Z</time>
      </trkpt>
      <trkpt lat="44.56282" lon="5.70819">
        <ele>1067.08</ele>
        <time>2019-10-26T13:14:41Z</time>
      </trkpt>
      <trkpt lat="44.56295" lon="5.7084">
        <ele>1065.61</ele>
        <time>2019-10-26T13:14:55Z</time>
      </trkpt>
      <trkpt lat="44.56303" lon="5.7086">
        <ele>1064.16</ele>
        <time>2019-10-26T13:15:09Z</time>
      </trkpt>
      <trkpt lat="44.56304" lon="5.70863">
        <ele>1064.06</ele>
        <time>2019-10-26T13:15:11Z</time>
      </trkpt>
      <trkpt lat="44.56309" lon="5.70888">
        <ele>1065.91</ele>
        <time>2019-10-26T13:15:23Z</time>
      </trkpt>
      <trkpt lat="44.56311" lon="5.70892">
        <ele>1066.1</ele>
        <time>2019-10-26T13:15:25Z</time>
      </trkpt>
      <trkpt lat="44.56314" lon="5.70906">
        <ele>1064.92</ele>
        <time>2019-10-26T13:15:36Z</time>
      </trkpt>
      <trkpt lat="44.56318" lon="5.70927">
        <ele>1062.28</ele>
        <time>2019-10-26T13:15:51Z</time>
      </trkpt>
      <trkpt lat="44.56318" lon="5.70951">
        <ele>1060.47</ele>
        <time>2019-10-26T13:16:03Z</time>
      </trkpt>
      <trkpt lat="44.56319" lon="5.70979">
        <ele>1053.8</ele>
        <time>2019-10-26T13:16:16Z</time>
      </trkpt>
      <trkpt lat="44.56324" lon="5.70998">
        <ele>1046.33</ele>
        <time>2019-10-26T13:16:27Z</time>
      </trkpt>
      <trkpt lat="44.56329" lon="5.71009">
        <ele>1041.77</ele>
        <time>2019-10-26T13:16:34Z</time>
      </trkpt>
      <trkpt lat="44.56334" lon="5.71018">
        <ele>1037.4</ele>
        <time>2019-10-26T13:16:40Z</time>
      </trkpt>
      <trkpt lat="44.56338" lon="5.71025">
        <ele>1033.25</ele>
        <time>2019-10-26T13:16:45Z</time>
      </trkpt>
      <trkpt lat="44.56343" lon="5.71032">
        <ele>1028.32</ele>
        <time>2019-10-26T13:16:51Z</time>
      </trkpt>
      <trkpt lat="44.56351" lon="5.71057">
        <ele>1021.92</ele>
        <time>2019-10-26T13:17:06Z</time>
      </trkpt>
      <trkpt lat="44.56359" lon="5.71089">
        <ele>1018.59</ele>
        <time>2019-10-26T13:17:23Z</time>
      </trkpt>
      <trkpt lat="44.5636" lon="5.71092">
        <ele>1018.26</ele>
        <time>2019-10-26T13:17:25Z</time>
      </trkpt>
      <trkpt lat="44.5637" lon="5.7112">
        <ele>1015.17</ele>
        <time>2019-10-26T13:17:41Z</time>
      </trkpt>
      <trkpt lat="44.56375" lon="5.71133">
        <ele>1014.47</ele>
        <time>2019-10-26T13:17:49Z</time>
      </trkpt>
      <trkpt lat="44.56383" lon="5.7115">
        <ele>1012.37</ele>
        <time>2019-10-26T13:18:01Z</time>
      </trkpt>
      <trkpt lat="44.56385" lon="5.71157">
        <ele>1011.04</ele>
        <time>2019-10-26T13:18:14Z</time>
      </trkpt>
      <trkpt lat="44.56389" lon="5.71174">
        <ele>1008.78</ele>
        <time>2019-10-26T13:18:25Z</time>
      </trkpt>
      <trkpt lat="44.56391" lon="5.7121">
        <ele>1002.62</ele>
        <time>2019-10-26T13:18:44Z</time>
      </trkpt>
      <trkpt lat="44.56389" lon="5.71233">
        <ele>998.57</ele>
        <time>2019-10-26T13:18:57Z</time>
      </trkpt>
      <trkpt lat="44.5639" lon="5.71263">
        <ele>994.78</ele>
        <time>2019-10-26T13:19:13Z</time>
      </trkpt>
      <trkpt lat="44.56392" lon="5.71293">
        <ele>990.06</ele>
        <time>2019-10-26T13:19:30Z</time>
      </trkpt>
      <trkpt lat="44.56393" lon="5.7131">
        <ele>989.2</ele>
        <time>2019-10-26T13:19:40Z</time>
      </trkpt>
      <trkpt lat="44.56395" lon="5.71317">
        <ele>988.05</ele>
        <time>2019-10-26T13:19:44Z</time>
      </trkpt>
      <trkpt lat="44.56402" lon="5.71344">
        <ele>985.14</ele>
        <time>2019-10-26T13:20:00Z</time>
      </trkpt>
      <trkpt lat="44.56407" lon="5.71358">
        <ele>984.62</ele>
        <time>2019-10-26T13:20:15Z</time>
      </trkpt>
      <trkpt lat="44.56413" lon="5.71385">
        <ele>982.93</ele>
        <time>2019-10-26T13:20:30Z</time>
      </trkpt>
      <trkpt lat="44.56422" lon="5.71409">
        <ele>981.21</ele>
        <time>2019-10-26T13:20:45Z</time>
      </trkpt>
      <trkpt lat="44.56424" lon="5.71415">
        <ele>980.51</ele>
        <time>2019-10-26T13:20:49Z</time>
      </trkpt>
      <trkpt lat="44.56442" lon="5.71442">
        <ele>976.18</ele>
        <time>2019-10-26T13:21:09Z</time>
      </trkpt>
      <trkpt lat="44.56458" lon="5.71463">
        <ele>971.27</ele>
        <time>2019-10-26T13:21:26Z</time>
      </trkpt>
      <trkpt lat="44.56459" lon="5.71463">
        <ele>970.96</ele>
        <time>2019-10-26T13:21:27Z</time>
      </trkpt>
      <trkpt lat="44.56478" lon="5.71473">
        <ele>969.31</ele>
        <time>2019-10-26T13:21:44Z</time>
      </trkpt>
      <trkpt lat="44.56482" lon="5.71475">
        <ele>968.69</ele>
        <time>2019-10-26T13:21:48Z</time>
      </trkpt>
      <trkpt lat="44.56489" lon="5.7148">
        <ele>966.91</ele>
        <time>2019-10-26T13:21:55Z</time>
      </trkpt>
      <trkpt lat="44.56497" lon="5.71487">
        <ele>964.47</ele>
        <time>2019-10-26T13:22:02Z</time>
      </trkpt>
      <trkpt lat="44.56504" lon="5.71495">
        <ele>962.91</ele>
        <time>2019-10-26T13:22:09Z</time>
      </trkpt>
      <trkpt lat="44.56506" lon="5.71505">
        <ele>966.12</ele>
        <time>2019-10-26T13:22:25Z</time>
      </trkpt>
      <trkpt lat="44.56519" lon="5.71524">
        <ele>964.54</ele>
        <time>2019-10-26T13:22:41Z</time>
      </trkpt>
      <trkpt lat="44.56523" lon="5.71529">
        <ele>963.4</ele>
        <time>2019-10-26T13:22:46Z</time>
      </trkpt>
      <trkpt lat="44.56538" lon="5.7155">
        <ele>959.64</ele>
        <time>2019-10-26T13:23:04Z</time>
      </trkpt>
      <trkpt lat="44.5655" lon="5.71569">
        <ele>955.86</ele>
        <time>2019-10-26T13:23:20Z</time>
      </trkpt>
      <trkpt lat="44.56556" lon="5.71577">
        <ele>954.62</ele>
        <time>2019-10-26T13:23:26Z</time>
      </trkpt>
      <trkpt lat="44.56567" lon="5.71585">
        <ele>951.91</ele>
        <time>2019-10-26T13:23:37Z</time>
      </trkpt>
      <trkpt lat="44.56568" lon="5.71586">
        <ele>952.03</ele>
        <time>2019-10-26T13:23:49Z</time>
      </trkpt>
      <trkpt lat="44.56569" lon="5.71587">
        <ele>952.42</ele>
        <time>2019-10-26T13:24:02Z</time>
      </trkpt>
      <trkpt lat="44.56581" lon="5.71594">
        <ele>950.32</ele>
        <time>2019-10-26T13:24:22Z</time>
      </trkpt>
      <trkpt lat="44.56601" lon="5.71611">
        <ele>947.8</ele>
        <time>2019-10-26T13:24:40Z</time>
      </trkpt>
      <trkpt lat="44.56612" lon="5.71642">
        <ele>946.15</ele>
        <time>2019-10-26T13:24:59Z</time>
      </trkpt>
      <trkpt lat="44.56617" lon="5.71683">
        <ele>945.46</ele>
        <time>2019-10-26T13:25:20Z</time>
      </trkpt>
      <trkpt lat="44.56625" lon="5.71713">
        <ele>945.16</ele>
        <time>2019-10-26T13:25:38Z</time>
      </trkpt>
      <trkpt lat="44.56628" lon="5.71727">
        <ele>944.88</ele>
        <time>2019-10-26T13:25:50Z</time>
      </trkpt>
      <trkpt lat="44.56635" lon="5.71747">
        <ele>944.93</ele>
        <time>2019-10-26T13:26:02Z</time>
      </trkpt>
      <trkpt lat="44.56639" lon="5.71746">
        <ele>944.97</ele>
        <time>2019-10-26T13:26:05Z</time>
      </trkpt>
      <trkpt lat="44.56644" lon="5.71735">
        <ele>945.46</ele>
        <time>2019-10-26T13:26:12Z</time>
      </trkpt>
      <trkpt lat="44.5665" lon="5.71712">
        <ele>946.01</ele>
        <time>2019-10-26T13:26:26Z</time>
      </trkpt>
      <trkpt lat="44.5666" lon="5.71697">
        <ele>946.08</ele>
        <time>2019-10-26T13:26:35Z</time>
      </trkpt>
      <trkpt lat="44.56671" lon="5.71682">
        <ele>945.41</ele>
        <time>2019-10-26T13:26:41Z</time>
      </trkpt>
      <trkpt lat="44.56696" lon="5.71629">
        <ele>944.9</ele>
        <time>2019-10-26T13:26:56Z</time>
      </trkpt>
      <trkpt lat="44.56724" lon="5.71566">
        <ele>947.54</ele>
        <time>2019-10-26T13:27:13Z</time>
      </trkpt>
      <trkpt lat="44.5674" lon="5.71507">
        <ele>943.13</ele>
        <time>2019-10-26T13:27:29Z</time>
      </trkpt>
      <trkpt lat="44.56753" lon="5.7147">
        <ele>951.06</ele>
        <time>2019-10-26T13:27:44Z</time>
      </trkpt>
      <trkpt lat="44.56762" lon="5.71445">
        <ele>957.97</ele>
        <time>2019-10-26T13:27:57Z</time>
      </trkpt>
      <trkpt lat="44.56763" lon="5.71443">
        <ele>958</ele>
        <time>2019-10-26T13:27:58Z</time>
      </trkpt>
      <trkpt lat="44.56763" lon="5.71442">
        <ele>958.01</ele>
        <time>2019-10-26T13:27:59Z</time>
      </trkpt>
      <trkpt lat="44.56764" lon="5.7144">
        <ele>958.07</ele>
        <time>2019-10-26T13:28:00Z</time>
      </trkpt>
      <trkpt lat="44.56765" lon="5.71439">
        <ele>957.99</ele>
        <time>2019-10-26T13:28:01Z</time>
      </trkpt>
      <trkpt lat="44.56765" lon="5.71438">
        <ele>957.81</ele>
        <time>2019-10-26T13:28:02Z</time>
      </trkpt>
      <trkpt lat="44.56766" lon="5.71436">
        <ele>957.54</ele>
        <time>2019-10-26T13:28:03Z</time>
      </trkpt>
      <trkpt lat="44.56766" lon="5.71435">
        <ele>957.33</ele>
        <time>2019-10-26T13:28:04Z</time>
      </trkpt>
      <trkpt lat="44.56767" lon="5.71433">
        <ele>957.21</ele>
        <time>2019-10-26T13:28:05Z</time>
      </trkpt>
      <trkpt lat="44.56773" lon="5.7142">
        <ele>956.68</ele>
        <time>2019-10-26T13:28:14Z</time>
      </trkpt>
      <trkpt lat="44.56784" lon="5.71383">
        <ele>955.8</ele>
        <time>2019-10-26T13:28:35Z</time>
      </trkpt>
      <trkpt lat="44.56786" lon="5.71378">
        <ele>955.63</ele>
        <time>2019-10-26T13:28:38Z</time>
      </trkpt>
      <trkpt lat="44.56793" lon="5.71354">
        <ele>953.52</ele>
        <time>2019-10-26T13:28:53Z</time>
      </trkpt>
      <trkpt lat="44.56795" lon="5.71348">
        <ele>953.12</ele>
        <time>2019-10-26T13:28:57Z</time>
      </trkpt>
      <trkpt lat="44.56796" lon="5.71346">
        <ele>953.15</ele>
        <time>2019-10-26T13:28:58Z</time>
      </trkpt>
      <trkpt lat="44.568" lon="5.71329">
        <ele>954.68</ele>
        <time>2019-10-26T13:29:09Z</time>
      </trkpt>
      <trkpt lat="44.56801" lon="5.71326">
        <ele>954.73</ele>
        <time>2019-10-26T13:29:11Z</time>
      </trkpt>
      <trkpt lat="44.56801" lon="5.71324">
        <ele>954.66</ele>
        <time>2019-10-26T13:29:12Z</time>
      </trkpt>
      <trkpt lat="44.56807" lon="5.71297">
        <ele>959.11</ele>
        <time>2019-10-26T13:29:28Z</time>
      </trkpt>
      <trkpt lat="44.56812" lon="5.71278">
        <ele>962.52</ele>
        <time>2019-10-26T13:29:42Z</time>
      </trkpt>
      <trkpt lat="44.56813" lon="5.71271">
        <ele>963.03</ele>
        <time>2019-10-26T13:29:46Z</time>
      </trkpt>
      <trkpt lat="44.56815" lon="5.71261">
        <ele>965.46</ele>
        <time>2019-10-26T13:29:51Z</time>
      </trkpt>
      <trkpt lat="44.56819" lon="5.71237">
        <ele>971.03</ele>
        <time>2019-10-26T13:30:06Z</time>
      </trkpt>
      <trkpt lat="44.56823" lon="5.71219">
        <ele>972.86</ele>
        <time>2019-10-26T13:30:19Z</time>
      </trkpt>
      <trkpt lat="44.56829" lon="5.71205">
        <ele>974.72</ele>
        <time>2019-10-26T13:30:29Z</time>
      </trkpt>
      <trkpt lat="44.56835" lon="5.71182">
        <ele>981.79</ele>
        <time>2019-10-26T13:30:45Z</time>
      </trkpt>
      <trkpt lat="44.56835" lon="5.71158">
        <ele>985.75</ele>
        <time>2019-10-26T13:31:01Z</time>
      </trkpt>
      <trkpt lat="44.56836" lon="5.71148">
        <ele>988.23</ele>
        <time>2019-10-26T13:31:08Z</time>
      </trkpt>
      <trkpt lat="44.56838" lon="5.71129">
        <ele>989.81</ele>
        <time>2019-10-26T13:31:21Z</time>
      </trkpt>
      <trkpt lat="44.56839" lon="5.71126">
        <ele>989.93</ele>
        <time>2019-10-26T13:31:23Z</time>
      </trkpt>
      <trkpt lat="44.56841" lon="5.71098">
        <ele>992.18</ele>
        <time>2019-10-26T13:31:41Z</time>
      </trkpt>
      <trkpt lat="44.56842" lon="5.71088">
        <ele>993.54</ele>
        <time>2019-10-26T13:31:47Z</time>
      </trkpt>
      <trkpt lat="44.56843" lon="5.71086">
        <ele>993.66</ele>
        <time>2019-10-26T13:31:48Z</time>
      </trkpt>
      <trkpt lat="44.56842" lon="5.71084">
        <ele>993.81</ele>
        <time>2019-10-26T13:31:49Z</time>
      </trkpt>
      <trkpt lat="44.56843" lon="5.71082">
        <ele>994.02</ele>
        <time>2019-10-26T13:31:50Z</time>
      </trkpt>
      <trkpt lat="44.56842" lon="5.71081">
        <ele>994.02</ele>
        <time>2019-10-26T13:31:51Z</time>
      </trkpt>
      <trkpt lat="44.56842" lon="5.71079">
        <ele>994.16</ele>
        <time>2019-10-26T13:31:52Z</time>
      </trkpt>
      <trkpt lat="44.56842" lon="5.71078">
        <ele>994.3</ele>
        <time>2019-10-26T13:31:53Z</time>
      </trkpt>
      <trkpt lat="44.5684" lon="5.71053">
        <ele>996.13</ele>
        <time>2019-10-26T13:32:08Z</time>
      </trkpt>
      <trkpt lat="44.56842" lon="5.7103">
        <ele>998.18</ele>
        <time>2019-10-26T13:32:23Z</time>
      </trkpt>
      <trkpt lat="44.56847" lon="5.71015">
        <ele>1000.76</ele>
        <time>2019-10-26T13:32:33Z</time>
      </trkpt>
      <trkpt lat="44.56846" lon="5.71011">
        <ele>1001.03</ele>
        <time>2019-10-26T13:32:35Z</time>
      </trkpt>
      <trkpt lat="44.56846" lon="5.7101">
        <ele>1001.18</ele>
        <time>2019-10-26T13:32:36Z</time>
      </trkpt>
      <trkpt lat="44.56847" lon="5.71007">
        <ele>1001.21</ele>
        <time>2019-10-26T13:32:38Z</time>
      </trkpt>
      <trkpt lat="44.56847" lon="5.71006">
        <ele>1001.21</ele>
        <time>2019-10-26T13:32:39Z</time>
      </trkpt>
      <trkpt lat="44.56848" lon="5.70986">
        <ele>1001.93</ele>
        <time>2019-10-26T13:32:52Z</time>
      </trkpt>
      <trkpt lat="44.56848" lon="5.70984">
        <ele>1001.96</ele>
        <time>2019-10-26T13:32:53Z</time>
      </trkpt>
      <trkpt lat="44.5685" lon="5.70974">
        <ele>1001.23</ele>
        <time>2019-10-26T13:33:00Z</time>
      </trkpt>
      <trkpt lat="44.56851" lon="5.70972">
        <ele>1001.3</ele>
        <time>2019-10-26T13:33:01Z</time>
      </trkpt>
      <trkpt lat="44.56852" lon="5.70971">
        <ele>1001.36</ele>
        <time>2019-10-26T13:33:02Z</time>
      </trkpt>
      <trkpt lat="44.56856" lon="5.70963">
        <ele>1001.28</ele>
        <time>2019-10-26T13:33:08Z</time>
      </trkpt>
      <trkpt lat="44.56857" lon="5.70961">
        <ele>1001.43</ele>
        <time>2019-10-26T13:33:09Z</time>
      </trkpt>
      <trkpt lat="44.56863" lon="5.70948">
        <ele>1001.61</ele>
        <time>2019-10-26T13:33:19Z</time>
      </trkpt>
      <trkpt lat="44.56873" lon="5.70927">
        <ele>1005.57</ele>
        <time>2019-10-26T13:33:35Z</time>
      </trkpt>
      <trkpt lat="44.56881" lon="5.70914">
        <ele>1007.16</ele>
        <time>2019-10-26T13:33:45Z</time>
      </trkpt>
      <trkpt lat="44.56888" lon="5.70896">
        <ele>1008.17</ele>
        <time>2019-10-26T13:33:59Z</time>
      </trkpt>
      <trkpt lat="44.56895" lon="5.70878">
        <ele>1010.75</ele>
        <time>2019-10-26T13:34:12Z</time>
      </trkpt>
      <trkpt lat="44.56905" lon="5.70858">
        <ele>1015.39</ele>
        <time>2019-10-26T13:34:27Z</time>
      </trkpt>
      <trkpt lat="44.56919" lon="5.70845">
        <ele>1019.21</ele>
        <time>2019-10-26T13:34:40Z</time>
      </trkpt>
      <trkpt lat="44.56923" lon="5.70833">
        <ele>1021.29</ele>
        <time>2019-10-26T13:34:48Z</time>
      </trkpt>
      <trkpt lat="44.56923" lon="5.70832">
        <ele>1021.52</ele>
        <time>2019-10-26T13:34:49Z</time>
      </trkpt>
      <trkpt lat="44.56922" lon="5.70829">
        <ele>1021.94</ele>
        <time>2019-10-26T13:34:51Z</time>
      </trkpt>
      <trkpt lat="44.5692" lon="5.70808">
        <ele>1024.48</ele>
        <time>2019-10-26T13:35:04Z</time>
      </trkpt>
      <trkpt lat="44.56922" lon="5.70803">
        <ele>1025.87</ele>
        <time>2019-10-26T13:35:09Z</time>
      </trkpt>
      <trkpt lat="44.56923" lon="5.70802">
        <ele>1026.11</ele>
        <time>2019-10-26T13:35:10Z</time>
      </trkpt>
      <trkpt lat="44.56931" lon="5.70786">
        <ele>1031.04</ele>
        <time>2019-10-26T13:35:25Z</time>
      </trkpt>
      <trkpt lat="44.56937" lon="5.70777">
        <ele>1033.28</ele>
        <time>2019-10-26T13:35:42Z</time>
      </trkpt>
      <trkpt lat="44.56942" lon="5.70756">
        <ele>1031.6</ele>
        <time>2019-10-26T13:35:55Z</time>
      </trkpt>
      <trkpt lat="44.56945" lon="5.70731">
        <ele>1029.85</ele>
        <time>2019-10-26T13:36:09Z</time>
      </trkpt>
      <trkpt lat="44.56946" lon="5.70729">
        <ele>1029.77</ele>
        <time>2019-10-26T13:36:10Z</time>
      </trkpt>
      <trkpt lat="44.56946" lon="5.70728">
        <ele>1029.8</ele>
        <time>2019-10-26T13:36:11Z</time>
      </trkpt>
      <trkpt lat="44.56947" lon="5.70727">
        <ele>1029.73</ele>
        <time>2019-10-26T13:36:12Z</time>
      </trkpt>
      <trkpt lat="44.56947" lon="5.70725">
        <ele>1029.77</ele>
        <time>2019-10-26T13:36:13Z</time>
      </trkpt>
      <trkpt lat="44.56947" lon="5.70724">
        <ele>1029.71</ele>
        <time>2019-10-26T13:36:14Z</time>
      </trkpt>
      <trkpt lat="44.56953" lon="5.70702">
        <ele>1025.84</ele>
        <time>2019-10-26T13:36:29Z</time>
      </trkpt>
      <trkpt lat="44.56963" lon="5.7068">
        <ele>1021.86</ele>
        <time>2019-10-26T13:36:44Z</time>
      </trkpt>
      <trkpt lat="44.56969" lon="5.70666">
        <ele>1017.58</ele>
        <time>2019-10-26T13:36:56Z</time>
      </trkpt>
      <trkpt lat="44.56976" lon="5.7065">
        <ele>1012.9</ele>
        <time>2019-10-26T13:37:09Z</time>
      </trkpt>
      <trkpt lat="44.56987" lon="5.70647">
        <ele>1011.32</ele>
        <time>2019-10-26T13:37:17Z</time>
      </trkpt>
      <trkpt lat="44.56991" lon="5.70644">
        <ele>1012.02</ele>
        <time>2019-10-26T13:37:18Z</time>
      </trkpt>
      <trkpt lat="44.57017" lon="5.70635">
        <ele>1019.27</ele>
        <time>2019-10-26T13:37:34Z</time>
      </trkpt>
      <trkpt lat="44.5703" lon="5.7063">
        <ele>1027.98</ele>
        <time>2019-10-26T13:37:47Z</time>
      </trkpt>
      <trkpt lat="44.57031" lon="5.70629">
        <ele>1029.02</ele>
        <time>2019-10-26T13:37:49Z</time>
      </trkpt>
      <trkpt lat="44.57046" lon="5.70626">
        <ele>1038.56</ele>
        <time>2019-10-26T13:38:02Z</time>
      </trkpt>
      <trkpt lat="44.57047" lon="5.70626">
        <ele>1039.48</ele>
        <time>2019-10-26T13:38:03Z</time>
      </trkpt>
      <trkpt lat="44.57048" lon="5.70626">
        <ele>1040.32</ele>
        <time>2019-10-26T13:38:04Z</time>
      </trkpt>
      <trkpt lat="44.57056" lon="5.70628">
        <ele>1044.52</ele>
        <time>2019-10-26T13:38:09Z</time>
      </trkpt>
      <trkpt lat="44.57064" lon="5.70636">
        <ele>1048.26</ele>
        <time>2019-10-26T13:38:19Z</time>
      </trkpt>
      <trkpt lat="44.57082" lon="5.7064">
        <ele>1050.85</ele>
        <time>2019-10-26T13:38:33Z</time>
      </trkpt>
      <trkpt lat="44.57104" lon="5.70639">
        <ele>1055.61</ele>
        <time>2019-10-26T13:38:50Z</time>
      </trkpt>
      <trkpt lat="44.57116" lon="5.70639">
        <ele>1058.81</ele>
        <time>2019-10-26T13:39:02Z</time>
      </trkpt>
      <trkpt lat="44.57128" lon="5.70644">
        <ele>1063.07</ele>
        <time>2019-10-26T13:39:13Z</time>
      </trkpt>
      <trkpt lat="44.5714" lon="5.70649">
        <ele>1067.66</ele>
        <time>2019-10-26T13:39:22Z</time>
      </trkpt>
      <trkpt lat="44.57145" lon="5.70648">
        <ele>1069.87</ele>
        <time>2019-10-26T13:39:26Z</time>
      </trkpt>
      <trkpt lat="44.57146" lon="5.70648">
        <ele>1070.51</ele>
        <time>2019-10-26T13:39:27Z</time>
      </trkpt>
      <trkpt lat="44.57151" lon="5.70648">
        <ele>1072.37</ele>
        <time>2019-10-26T13:39:30Z</time>
      </trkpt>
      <trkpt lat="44.57153" lon="5.70647">
        <ele>1073.08</ele>
        <time>2019-10-26T13:39:31Z</time>
      </trkpt>
      <trkpt lat="44.57153" lon="5.70646">
        <ele>1073.26</ele>
        <time>2019-10-26T13:39:32Z</time>
      </trkpt>
      <trkpt lat="44.57154" lon="5.70645">
        <ele>1073.81</ele>
        <time>2019-10-26T13:39:33Z</time>
      </trkpt>
      <trkpt lat="44.57155" lon="5.70644">
        <ele>1074.51</ele>
        <time>2019-10-26T13:39:34Z</time>
      </trkpt>
      <trkpt lat="44.57162" lon="5.70638">
        <ele>1074.59</ele>
        <time>2019-10-26T13:39:45Z</time>
      </trkpt>
      <trkpt lat="44.57164" lon="5.70638">
        <ele>1074.64</ele>
        <time>2019-10-26T13:39:46Z</time>
      </trkpt>
      <trkpt lat="44.57173" lon="5.70629">
        <ele>1076.32</ele>
        <time>2019-10-26T13:39:56Z</time>
      </trkpt>
      <trkpt lat="44.57181" lon="5.70618">
        <ele>1079.88</ele>
        <time>2019-10-26T13:40:12Z</time>
      </trkpt>
      <trkpt lat="44.57188" lon="5.70609">
        <ele>1077.52</ele>
        <time>2019-10-26T13:40:33Z</time>
      </trkpt>
      <trkpt lat="44.57193" lon="5.70601">
        <ele>1076.09</ele>
        <time>2019-10-26T13:40:58Z</time>
      </trkpt>
      <trkpt lat="44.57205" lon="5.70591">
        <ele>1079.7</ele>
        <time>2019-10-26T13:41:10Z</time>
      </trkpt>
      <trkpt lat="44.57222" lon="5.70577">
        <ele>1087.32</ele>
        <time>2019-10-26T13:41:31Z</time>
      </trkpt>
      <trkpt lat="44.57235" lon="5.70562">
        <ele>1092.76</ele>
        <time>2019-10-26T13:41:46Z</time>
      </trkpt>
      <trkpt lat="44.57249" lon="5.70546">
        <ele>1098.93</ele>
        <time>2019-10-26T13:42:05Z</time>
      </trkpt>
      <trkpt lat="44.57267" lon="5.70527">
        <ele>1104.31</ele>
        <time>2019-10-26T13:42:25Z</time>
      </trkpt>
      <trkpt lat="44.57287" lon="5.70517">
        <ele>1108.4</ele>
        <time>2019-10-26T13:42:43Z</time>
      </trkpt>
      <trkpt lat="44.57298" lon="5.70505">
        <ele>1108.38</ele>
        <time>2019-10-26T13:43:01Z</time>
      </trkpt>
      <trkpt lat="44.57305" lon="5.70495">
        <ele>1103.82</ele>
        <time>2019-10-26T13:43:24Z</time>
      </trkpt>
      <trkpt lat="44.57309" lon="5.70494">
        <ele>1099.74</ele>
        <time>2019-10-26T13:43:50Z</time>
      </trkpt>
      <trkpt lat="44.5732" lon="5.70489">
        <ele>1098.82</ele>
        <time>2019-10-26T13:44:07Z</time>
      </trkpt>
      <trkpt lat="44.57325" lon="5.70483">
        <ele>1099.44</ele>
        <time>2019-10-26T13:44:13Z</time>
      </trkpt>
      <trkpt lat="44.57338" lon="5.70471">
        <ele>1100.52</ele>
        <time>2019-10-26T13:44:27Z</time>
      </trkpt>
      <trkpt lat="44.57347" lon="5.70461">
        <ele>1101.49</ele>
        <time>2019-10-26T13:44:39Z</time>
      </trkpt>
      <trkpt lat="44.57348" lon="5.7046">
        <ele>1101.5</ele>
        <time>2019-10-26T13:44:40Z</time>
      </trkpt>
      <trkpt lat="44.57356" lon="5.70452">
        <ele>1099.16</ele>
        <time>2019-10-26T13:44:53Z</time>
      </trkpt>
      <trkpt lat="44.57372" lon="5.7044">
        <ele>1097.52</ele>
        <time>2019-10-26T13:45:10Z</time>
      </trkpt>
      <trkpt lat="44.57381" lon="5.70416">
        <ele>1096.48</ele>
        <time>2019-10-26T13:45:26Z</time>
      </trkpt>
      <trkpt lat="44.57383" lon="5.70403">
        <ele>1095.95</ele>
        <time>2019-10-26T13:45:34Z</time>
      </trkpt>
      <trkpt lat="44.57391" lon="5.70382">
        <ele>1094.63</ele>
        <time>2019-10-26T13:45:48Z</time>
      </trkpt>
      <trkpt lat="44.57391" lon="5.70379">
        <ele>1094.68</ele>
        <time>2019-10-26T13:45:49Z</time>
      </trkpt>
      <trkpt lat="44.57396" lon="5.70365">
        <ele>1093.5</ele>
        <time>2019-10-26T13:46:03Z</time>
      </trkpt>
      <trkpt lat="44.57402" lon="5.70348">
        <ele>1091.26</ele>
        <time>2019-10-26T13:46:22Z</time>
      </trkpt>
      <trkpt lat="44.57407" lon="5.70336">
        <ele>1085.72</ele>
        <time>2019-10-26T13:46:44Z</time>
      </trkpt>
      <trkpt lat="44.57416" lon="5.70319">
        <ele>1084.55</ele>
        <time>2019-10-26T13:47:04Z</time>
      </trkpt>
      <trkpt lat="44.57418" lon="5.70317">
        <ele>1084.39</ele>
        <time>2019-10-26T13:47:06Z</time>
      </trkpt>
      <trkpt lat="44.5743" lon="5.70296">
        <ele>1083.39</ele>
        <time>2019-10-26T13:47:26Z</time>
      </trkpt>
      <trkpt lat="44.57443" lon="5.7027">
        <ele>1081.8</ele>
        <time>2019-10-26T13:47:44Z</time>
      </trkpt>
      <trkpt lat="44.57456" lon="5.70238">
        <ele>1078.5</ele>
        <time>2019-10-26T13:48:01Z</time>
      </trkpt>
      <trkpt lat="44.57466" lon="5.70223">
        <ele>1076.81</ele>
        <time>2019-10-26T13:48:18Z</time>
      </trkpt>
      <trkpt lat="44.57483" lon="5.702">
        <ele>1073.8</ele>
        <time>2019-10-26T13:48:37Z</time>
      </trkpt>
      <trkpt lat="44.57489" lon="5.70189">
        <ele>1072.21</ele>
        <time>2019-10-26T13:48:42Z</time>
      </trkpt>
      <trkpt lat="44.57493" lon="5.7017">
        <ele>1069.49</ele>
        <time>2019-10-26T13:48:57Z</time>
      </trkpt>
      <trkpt lat="44.57485" lon="5.70167">
        <ele>1069.04</ele>
        <time>2019-10-26T13:49:26Z</time>
      </trkpt>
      <trkpt lat="44.57483" lon="5.70159">
        <ele>1068.7</ele>
        <time>2019-10-26T13:49:51Z</time>
      </trkpt>
      <trkpt lat="44.57488" lon="5.70164">
        <ele>1071.89</ele>
        <time>2019-10-26T13:50:20Z</time>
      </trkpt>
      <trkpt lat="44.57486" lon="5.70156">
        <ele>1067.97</ele>
        <time>2019-10-26T13:50:40Z</time>
      </trkpt>
      <trkpt lat="44.57487" lon="5.70153">
        <ele>1068.48</ele>
        <time>2019-10-26T13:51:02Z</time>
      </trkpt>
      <trkpt lat="44.57492" lon="5.70158">
        <ele>1071.51</ele>
        <time>2019-10-26T13:51:27Z</time>
      </trkpt>
      <trkpt lat="44.5749" lon="5.70165">
        <ele>1071.7</ele>
        <time>2019-10-26T13:51:44Z</time>
      </trkpt>
      <trkpt lat="44.57494" lon="5.70171">
        <ele>1070.61</ele>
        <time>2019-10-26T13:52:04Z</time>
      </trkpt>
      <trkpt lat="44.57504" lon="5.70163">
        <ele>1070.38</ele>
        <time>2019-10-26T13:52:17Z</time>
      </trkpt>
      <trkpt lat="44.57505" lon="5.70163">
        <ele>1070.45</ele>
        <time>2019-10-26T13:52:18Z</time>
      </trkpt>
      <trkpt lat="44.57527" lon="5.70164">
        <ele>1072.44</ele>
        <time>2019-10-26T13:52:38Z</time>
      </trkpt>
      <trkpt lat="44.5754" lon="5.70132">
        <ele>1071.85</ele>
        <time>2019-10-26T13:52:53Z</time>
      </trkpt>
      <trkpt lat="44.57545" lon="5.70101">
        <ele>1064.34</ele>
        <time>2019-10-26T13:53:10Z</time>
      </trkpt>
      <trkpt lat="44.57544" lon="5.70088">
        <ele>1061.65</ele>
        <time>2019-10-26T13:53:19Z</time>
      </trkpt>
      <trkpt lat="44.57544" lon="5.70086">
        <ele>1061.35</ele>
        <time>2019-10-26T13:53:20Z</time>
      </trkpt>
      <trkpt lat="44.5754" lon="5.70065">
        <ele>1059.05</ele>
        <time>2019-10-26T13:53:33Z</time>
      </trkpt>
      <trkpt lat="44.5754" lon="5.70063">
        <ele>1058.76</ele>
        <time>2019-10-26T13:53:34Z</time>
      </trkpt>
      <trkpt lat="44.57539" lon="5.70061">
        <ele>1058.54</ele>
        <time>2019-10-26T13:53:35Z</time>
      </trkpt>
      <trkpt lat="44.57539" lon="5.70059">
        <ele>1058.34</ele>
        <time>2019-10-26T13:53:36Z</time>
      </trkpt>
      <trkpt lat="44.5754" lon="5.70057">
        <ele>1058.12</ele>
        <time>2019-10-26T13:53:37Z</time>
      </trkpt>
      <trkpt lat="44.5754" lon="5.70056">
        <ele>1057.98</ele>
        <time>2019-10-26T13:53:38Z</time>
      </trkpt>
      <trkpt lat="44.5754" lon="5.70054">
        <ele>1057.86</ele>
        <time>2019-10-26T13:53:39Z</time>
      </trkpt>
      <trkpt lat="44.5754" lon="5.70052">
        <ele>1057.77</ele>
        <time>2019-10-26T13:53:40Z</time>
      </trkpt>
      <trkpt lat="44.5754" lon="5.7005">
        <ele>1057.64</ele>
        <time>2019-10-26T13:53:41Z</time>
      </trkpt>
      <trkpt lat="44.57542" lon="5.70043">
        <ele>1057.34</ele>
        <time>2019-10-26T13:53:46Z</time>
      </trkpt>
      <trkpt lat="44.57543" lon="5.70042">
        <ele>1057.27</ele>
        <time>2019-10-26T13:53:47Z</time>
      </trkpt>
      <trkpt lat="44.57545" lon="5.70037">
        <ele>1056.4</ele>
        <time>2019-10-26T13:53:57Z</time>
      </trkpt>
      <trkpt lat="44.5755" lon="5.70037">
        <ele>1055.11</ele>
        <time>2019-10-26T13:54:10Z</time>
      </trkpt>
      <trkpt lat="44.57551" lon="5.70037">
        <ele>1055.02</ele>
        <time>2019-10-26T13:54:11Z</time>
      </trkpt>
      <trkpt lat="44.57563" lon="5.70038">
        <ele>1055.08</ele>
        <time>2019-10-26T13:54:24Z</time>
      </trkpt>
      <trkpt lat="44.5758" lon="5.70036">
        <ele>1059.92</ele>
        <time>2019-10-26T13:54:37Z</time>
      </trkpt>
      <trkpt lat="44.57582" lon="5.70034">
        <ele>1059.8</ele>
        <time>2019-10-26T13:54:39Z</time>
      </trkpt>
      <trkpt lat="44.57584" lon="5.70033">
        <ele>1059.84</ele>
        <time>2019-10-26T13:54:40Z</time>
      </trkpt>
      <trkpt lat="44.57602" lon="5.70018">
        <ele>1057.63</ele>
        <time>2019-10-26T13:54:56Z</time>
      </trkpt>
      <trkpt lat="44.57622" lon="5.69995">
        <ele>1054.45</ele>
        <time>2019-10-26T13:55:14Z</time>
      </trkpt>
      <trkpt lat="44.57623" lon="5.69994">
        <ele>1054.25</ele>
        <time>2019-10-26T13:55:15Z</time>
      </trkpt>
      <trkpt lat="44.5763" lon="5.6998">
        <ele>1052.31</ele>
        <time>2019-10-26T13:55:25Z</time>
      </trkpt>
      <trkpt lat="44.57632" lon="5.69973">
        <ele>1051.71</ele>
        <time>2019-10-26T13:55:28Z</time>
      </trkpt>
      <trkpt lat="44.57643" lon="5.69952">
        <ele>1049.1</ele>
        <time>2019-10-26T13:55:40Z</time>
      </trkpt>
      <trkpt lat="44.57644" lon="5.6995">
        <ele>1048.93</ele>
        <time>2019-10-26T13:55:41Z</time>
      </trkpt>
      <trkpt lat="44.57644" lon="5.69948">
        <ele>1048.66</ele>
        <time>2019-10-26T13:55:42Z</time>
      </trkpt>
      <trkpt lat="44.57645" lon="5.69946">
        <ele>1048.38</ele>
        <time>2019-10-26T13:55:43Z</time>
      </trkpt>
      <trkpt lat="44.57646" lon="5.69944">
        <ele>1047.99</ele>
        <time>2019-10-26T13:55:44Z</time>
      </trkpt>
      <trkpt lat="44.57647" lon="5.69942">
        <ele>1047.39</ele>
        <time>2019-10-26T13:55:45Z</time>
      </trkpt>
      <trkpt lat="44.57659" lon="5.69918">
        <ele>1042.96</ele>
        <time>2019-10-26T13:56:00Z</time>
      </trkpt>
      <trkpt lat="44.57665" lon="5.69906">
        <ele>1043.37</ele>
        <time>2019-10-26T13:56:10Z</time>
      </trkpt>
      <trkpt lat="44.57665" lon="5.69905">
        <ele>1043.54</ele>
        <time>2019-10-26T13:56:11Z</time>
      </trkpt>
      <trkpt lat="44.57666" lon="5.69904">
        <ele>1043.65</ele>
        <time>2019-10-26T13:56:12Z</time>
      </trkpt>
      <trkpt lat="44.57667" lon="5.69903">
        <ele>1043.62</ele>
        <time>2019-10-26T13:56:13Z</time>
      </trkpt>
      <trkpt lat="44.57668" lon="5.69902">
        <ele>1043.64</ele>
        <time>2019-10-26T13:56:14Z</time>
      </trkpt>
      <trkpt lat="44.57677" lon="5.69889">
        <ele>1044.74</ele>
        <time>2019-10-26T13:56:27Z</time>
      </trkpt>
      <trkpt lat="44.5769" lon="5.69872">
        <ele>1046.11</ele>
        <time>2019-10-26T13:56:43Z</time>
      </trkpt>
      <trkpt lat="44.57694" lon="5.69872">
        <ele>1046.66</ele>
        <time>2019-10-26T13:56:54Z</time>
      </trkpt>
      <trkpt lat="44.57695" lon="5.69871">
        <ele>1046.77</ele>
        <time>2019-10-26T13:56:55Z</time>
      </trkpt>
      <trkpt lat="44.57697" lon="5.69871">
        <ele>1046.96</ele>
        <time>2019-10-26T13:56:56Z</time>
      </trkpt>
      <trkpt lat="44.57698" lon="5.69871">
        <ele>1047.21</ele>
        <time>2019-10-26T13:56:57Z</time>
      </trkpt>
      <trkpt lat="44.57699" lon="5.69871">
        <ele>1047.45</ele>
        <time>2019-10-26T13:56:58Z</time>
      </trkpt>
      <trkpt lat="44.577" lon="5.69871">
        <ele>1047.64</ele>
        <time>2019-10-26T13:56:59Z</time>
      </trkpt>
      <trkpt lat="44.57701" lon="5.69871">
        <ele>1047.73</ele>
        <time>2019-10-26T13:57:00Z</time>
      </trkpt>
      <trkpt lat="44.57702" lon="5.69871">
        <ele>1047.88</ele>
        <time>2019-10-26T13:57:01Z</time>
      </trkpt>
      <trkpt lat="44.57703" lon="5.69871">
        <ele>1047.99</ele>
        <time>2019-10-26T13:57:02Z</time>
      </trkpt>
      <trkpt lat="44.57717" lon="5.69876">
        <ele>1049.59</ele>
        <time>2019-10-26T13:57:17Z</time>
      </trkpt>
      <trkpt lat="44.57734" lon="5.69878">
        <ele>1051.47</ele>
        <time>2019-10-26T13:57:33Z</time>
      </trkpt>
      <trkpt lat="44.57752" lon="5.69885">
        <ele>1055.4</ele>
        <time>2019-10-26T13:57:48Z</time>
      </trkpt>
      <trkpt lat="44.57772" lon="5.69892">
        <ele>1057.55</ele>
        <time>2019-10-26T13:58:05Z</time>
      </trkpt>
      <trkpt lat="44.57796" lon="5.69898">
        <ele>1053.88</ele>
        <time>2019-10-26T13:58:24Z</time>
      </trkpt>
      <trkpt lat="44.57819" lon="5.6989">
        <ele>1043.14</ele>
        <time>2019-10-26T13:58:42Z</time>
      </trkpt>
      <trkpt lat="44.5783" lon="5.69889">
        <ele>1039.83</ele>
        <time>2019-10-26T13:58:51Z</time>
      </trkpt>
      <trkpt lat="44.57833" lon="5.69889">
        <ele>1039.43</ele>
        <time>2019-10-26T13:58:53Z</time>
      </trkpt>
      <trkpt lat="44.57834" lon="5.69889">
        <ele>1039.26</ele>
        <time>2019-10-26T13:58:54Z</time>
      </trkpt>
      <trkpt lat="44.57835" lon="5.69888">
        <ele>1038.79</ele>
        <time>2019-10-26T13:58:55Z</time>
      </trkpt>
      <trkpt lat="44.57837" lon="5.69888">
        <ele>1038.51</ele>
        <time>2019-10-26T13:58:56Z</time>
      </trkpt>
      <trkpt lat="44.57838" lon="5.69888">
        <ele>1038.43</ele>
        <time>2019-10-26T13:58:57Z</time>
      </trkpt>
      <trkpt lat="44.57839" lon="5.69888">
        <ele>1038.12</ele>
        <time>2019-10-26T13:58:58Z</time>
      </trkpt>
      <trkpt lat="44.5784" lon="5.69888">
        <ele>1037.7</ele>
        <time>2019-10-26T13:58:59Z</time>
      </trkpt>
      <trkpt lat="44.57842" lon="5.69887">
        <ele>1037.33</ele>
        <time>2019-10-26T13:59:00Z</time>
      </trkpt>
      <trkpt lat="44.57843" lon="5.69887">
        <ele>1037.16</ele>
        <time>2019-10-26T13:59:01Z</time>
      </trkpt>
      <trkpt lat="44.57861" lon="5.69874">
        <ele>1032.81</ele>
        <time>2019-10-26T13:59:14Z</time>
      </trkpt>
      <trkpt lat="44.57869" lon="5.69843">
        <ele>1025.59</ele>
        <time>2019-10-26T13:59:29Z</time>
      </trkpt>
      <trkpt lat="44.57871" lon="5.69825">
        <ele>1020.94</ele>
        <time>2019-10-26T13:59:43Z</time>
      </trkpt>
      <trkpt lat="44.57869" lon="5.69793">
        <ele>1017.66</ele>
        <time>2019-10-26T14:00:01Z</time>
      </trkpt>
      <trkpt lat="44.57869" lon="5.69788">
        <ele>1017.1</ele>
        <time>2019-10-26T14:00:04Z</time>
      </trkpt>
      <trkpt lat="44.57869" lon="5.69786">
        <ele>1016.95</ele>
        <time>2019-10-26T14:00:05Z</time>
      </trkpt>
      <trkpt lat="44.57867" lon="5.69764">
        <ele>1014.6</ele>
        <time>2019-10-26T14:00:18Z</time>
      </trkpt>
      <trkpt lat="44.57874" lon="5.6974">
        <ele>1016.07</ele>
        <time>2019-10-26T14:00:33Z</time>
      </trkpt>
      <trkpt lat="44.57875" lon="5.69738">
        <ele>1016.47</ele>
        <time>2019-10-26T14:00:34Z</time>
      </trkpt>
      <trkpt lat="44.57875" lon="5.69736">
        <ele>1016.85</ele>
        <time>2019-10-26T14:00:35Z</time>
      </trkpt>
      <trkpt lat="44.57889" lon="5.6972">
        <ele>1025.67</ele>
        <time>2019-10-26T14:00:48Z</time>
      </trkpt>
      <trkpt lat="44.57886" lon="5.6969">
        <ele>1027.93</ele>
        <time>2019-10-26T14:01:07Z</time>
      </trkpt>
      <trkpt lat="44.57876" lon="5.6967">
        <ele>1026.74</ele>
        <time>2019-10-26T14:01:19Z</time>
      </trkpt>
      <trkpt lat="44.57876" lon="5.69667">
        <ele>1026.31</ele>
        <time>2019-10-26T14:01:21Z</time>
      </trkpt>
      <trkpt lat="44.57872" lon="5.69651">
        <ele>1025.42</ele>
        <time>2019-10-26T14:01:33Z</time>
      </trkpt>
      <trkpt lat="44.57871" lon="5.69651">
        <ele>1025.65</ele>
        <time>2019-10-26T14:01:49Z</time>
      </trkpt>
      <trkpt lat="44.57897" lon="5.69643">
        <ele>1030.32</ele>
        <time>2019-10-26T14:02:01Z</time>
      </trkpt>
      <trkpt lat="44.57926" lon="5.69643">
        <ele>1029.04</ele>
        <time>2019-10-26T14:02:12Z</time>
      </trkpt>
      <trkpt lat="44.5796" lon="5.69668">
        <ele>1029.06</ele>
        <time>2019-10-26T14:02:26Z</time>
      </trkpt>
      <trkpt lat="44.58011" lon="5.69687">
        <ele>1027.15</ele>
        <time>2019-10-26T14:02:42Z</time>
      </trkpt>
      <trkpt lat="44.58027" lon="5.69687">
        <ele>1026.65</ele>
        <time>2019-10-26T14:02:54Z</time>
      </trkpt>
      <trkpt lat="44.58045" lon="5.6966">
        <ele>1021.05</ele>
        <time>2019-10-26T14:03:12Z</time>
      </trkpt>
      <trkpt lat="44.58059" lon="5.69632">
        <ele>1018.05</ele>
        <time>2019-10-26T14:03:32Z</time>
      </trkpt>
      <trkpt lat="44.58069" lon="5.69606">
        <ele>1016.88</ele>
        <time>2019-10-26T14:03:49Z</time>
      </trkpt>
      <trkpt lat="44.58076" lon="5.69587">
        <ele>1016.14</ele>
        <time>2019-10-26T14:04:02Z</time>
      </trkpt>
      <trkpt lat="44.58076" lon="5.69585">
        <ele>1016.19</ele>
        <time>2019-10-26T14:04:03Z</time>
      </trkpt>
      <trkpt lat="44.58079" lon="5.69568">
        <ele>1016.34</ele>
        <time>2019-10-26T14:04:18Z</time>
      </trkpt>
      <trkpt lat="44.58088" lon="5.69526">
        <ele>1016.63</ele>
        <time>2019-10-26T14:04:39Z</time>
      </trkpt>
      <trkpt lat="44.58091" lon="5.69513">
        <ele>1016.79</ele>
        <time>2019-10-26T14:04:46Z</time>
      </trkpt>
      <trkpt lat="44.58092" lon="5.69512">
        <ele>1016.8</ele>
        <time>2019-10-26T14:04:47Z</time>
      </trkpt>
      <trkpt lat="44.58093" lon="5.6951">
        <ele>1016.81</ele>
        <time>2019-10-26T14:04:48Z</time>
      </trkpt>
      <trkpt lat="44.58092" lon="5.69502">
        <ele>1016.19</ele>
        <time>2019-10-26T14:04:57Z</time>
      </trkpt>
      <trkpt lat="44.58093" lon="5.695">
        <ele>1016</ele>
        <time>2019-10-26T14:04:58Z</time>
      </trkpt>
      <trkpt lat="44.58093" lon="5.69498">
        <ele>1015.73</ele>
        <time>2019-10-26T14:04:59Z</time>
      </trkpt>
      <trkpt lat="44.58094" lon="5.69496">
        <ele>1015.55</ele>
        <time>2019-10-26T14:05:00Z</time>
      </trkpt>
      <trkpt lat="44.58095" lon="5.69495">
        <ele>1015.29</ele>
        <time>2019-10-26T14:05:01Z</time>
      </trkpt>
      <trkpt lat="44.58095" lon="5.69493">
        <ele>1015.17</ele>
        <time>2019-10-26T14:05:02Z</time>
      </trkpt>
      <trkpt lat="44.58095" lon="5.69491">
        <ele>1015.07</ele>
        <time>2019-10-26T14:05:03Z</time>
      </trkpt>
      <trkpt lat="44.581" lon="5.69472">
        <ele>1012.04</ele>
        <time>2019-10-26T14:05:16Z</time>
      </trkpt>
      <trkpt lat="44.58109" lon="5.6945">
        <ele>1007.24</ele>
        <time>2019-10-26T14:05:31Z</time>
      </trkpt>
      <trkpt lat="44.58117" lon="5.69429">
        <ele>1003.66</ele>
        <time>2019-10-26T14:05:46Z</time>
      </trkpt>
      <trkpt lat="44.58131" lon="5.69403">
        <ele>1001.37</ele>
        <time>2019-10-26T14:06:03Z</time>
      </trkpt>
      <trkpt lat="44.58143" lon="5.6938">
        <ele>998.82</ele>
        <time>2019-10-26T14:06:18Z</time>
      </trkpt>
      <trkpt lat="44.58156" lon="5.69349">
        <ele>996.95</ele>
        <time>2019-10-26T14:06:37Z</time>
      </trkpt>
      <trkpt lat="44.58165" lon="5.69319">
        <ele>994.37</ele>
        <time>2019-10-26T14:06:55Z</time>
      </trkpt>
      <trkpt lat="44.58175" lon="5.69299">
        <ele>993.52</ele>
        <time>2019-10-26T14:07:11Z</time>
      </trkpt>
      <trkpt lat="44.58195" lon="5.69283">
        <ele>992.09</ele>
        <time>2019-10-26T14:07:29Z</time>
      </trkpt>
      <trkpt lat="44.58218" lon="5.69278">
        <ele>988.82</ele>
        <time>2019-10-26T14:07:48Z</time>
      </trkpt>
      <trkpt lat="44.5824" lon="5.69296">
        <ele>987.35</ele>
        <time>2019-10-26T14:08:08Z</time>
      </trkpt>
      <trkpt lat="44.58264" lon="5.69316">
        <ele>986.39</ele>
        <time>2019-10-26T14:08:30Z</time>
      </trkpt>
      <trkpt lat="44.58281" lon="5.69306">
        <ele>983.8</ele>
        <time>2019-10-26T14:08:45Z</time>
      </trkpt>
      <trkpt lat="44.58293" lon="5.69282">
        <ele>980.34</ele>
        <time>2019-10-26T14:09:00Z</time>
      </trkpt>
      <trkpt lat="44.58303" lon="5.69263">
        <ele>976.91</ele>
        <time>2019-10-26T14:09:14Z</time>
      </trkpt>
      <trkpt lat="44.58313" lon="5.69239">
        <ele>975.02</ele>
        <time>2019-10-26T14:09:28Z</time>
      </trkpt>
      <trkpt lat="44.58322" lon="5.69217">
        <ele>974.07</ele>
        <time>2019-10-26T14:09:43Z</time>
      </trkpt>
      <trkpt lat="44.5833" lon="5.692">
        <ele>972.61</ele>
        <time>2019-10-26T14:09:55Z</time>
      </trkpt>
      <trkpt lat="44.58337" lon="5.69199">
        <ele>971.61</ele>
        <time>2019-10-26T14:10:01Z</time>
      </trkpt>
      <trkpt lat="44.58337" lon="5.69205">
        <ele>971.56</ele>
        <time>2019-10-26T14:10:07Z</time>
      </trkpt>
      <trkpt lat="44.58334" lon="5.69215">
        <ele>970.31</ele>
        <time>2019-10-26T14:10:15Z</time>
      </trkpt>
      <trkpt lat="44.58334" lon="5.69217">
        <ele>970.21</ele>
        <time>2019-10-26T14:10:16Z</time>
      </trkpt>
      <trkpt lat="44.58334" lon="5.69218">
        <ele>970.1</ele>
        <time>2019-10-26T14:10:17Z</time>
      </trkpt>
      <trkpt lat="44.58334" lon="5.69219">
        <ele>970.07</ele>
        <time>2019-10-26T14:10:18Z</time>
      </trkpt>
      <trkpt lat="44.58334" lon="5.6922">
        <ele>970.06</ele>
        <time>2019-10-26T14:10:19Z</time>
      </trkpt>
      <trkpt lat="44.58334" lon="5.69222">
        <ele>970.08</ele>
        <time>2019-10-26T14:10:20Z</time>
      </trkpt>
      <trkpt lat="44.58333" lon="5.69233">
        <ele>970.39</ele>
        <time>2019-10-26T14:10:28Z</time>
      </trkpt>
      <trkpt lat="44.58333" lon="5.69235">
        <ele>970.39</ele>
        <time>2019-10-26T14:10:29Z</time>
      </trkpt>
      <trkpt lat="44.58331" lon="5.69258">
        <ele>970.55</ele>
        <time>2019-10-26T14:10:42Z</time>
      </trkpt>
      <trkpt lat="44.58327" lon="5.69287">
        <ele>970.01</ele>
        <time>2019-10-26T14:10:59Z</time>
      </trkpt>
      <trkpt lat="44.58323" lon="5.69315">
        <ele>969.49</ele>
        <time>2019-10-26T14:11:14Z</time>
      </trkpt>
      <trkpt lat="44.58318" lon="5.69335">
        <ele>968.69</ele>
        <time>2019-10-26T14:11:27Z</time>
      </trkpt>
      <trkpt lat="44.58318" lon="5.69336">
        <ele>968.48</ele>
        <time>2019-10-26T14:11:28Z</time>
      </trkpt>
      <trkpt lat="44.58317" lon="5.69338">
        <ele>968.34</ele>
        <time>2019-10-26T14:11:29Z</time>
      </trkpt>
      <trkpt lat="44.58317" lon="5.6934">
        <ele>968.24</ele>
        <time>2019-10-26T14:11:30Z</time>
      </trkpt>
      <trkpt lat="44.58317" lon="5.69341">
        <ele>967.82</ele>
        <time>2019-10-26T14:11:31Z</time>
      </trkpt>
      <trkpt lat="44.58316" lon="5.69343">
        <ele>967.16</ele>
        <time>2019-10-26T14:11:32Z</time>
      </trkpt>
      <trkpt lat="44.58309" lon="5.69373">
        <ele>962.84</ele>
        <time>2019-10-26T14:11:48Z</time>
      </trkpt>
      <trkpt lat="44.58309" lon="5.69386">
        <ele>960.71</ele>
        <time>2019-10-26T14:11:55Z</time>
      </trkpt>
      <trkpt lat="44.58309" lon="5.69388">
        <ele>960.21</ele>
        <time>2019-10-26T14:11:56Z</time>
      </trkpt>
      <trkpt lat="44.58319" lon="5.69385">
        <ele>957.9</ele>
        <time>2019-10-26T14:12:05Z</time>
      </trkpt>
      <trkpt lat="44.58334" lon="5.69358">
        <ele>954.01</ele>
        <time>2019-10-26T14:12:23Z</time>
      </trkpt>
      <trkpt lat="44.58339" lon="5.69343">
        <ele>952.44</ele>
        <time>2019-10-26T14:12:31Z</time>
      </trkpt>
      <trkpt lat="44.58348" lon="5.69312">
        <ele>949.15</ele>
        <time>2019-10-26T14:12:48Z</time>
      </trkpt>
      <trkpt lat="44.5835" lon="5.69306">
        <ele>948.58</ele>
        <time>2019-10-26T14:12:51Z</time>
      </trkpt>
      <trkpt lat="44.58362" lon="5.69282">
        <ele>946.47</ele>
        <time>2019-10-26T14:13:06Z</time>
      </trkpt>
      <trkpt lat="44.5837" lon="5.69276">
        <ele>946.03</ele>
        <time>2019-10-26T14:13:13Z</time>
      </trkpt>
      <trkpt lat="44.58373" lon="5.69277">
        <ele>945.04</ele>
        <time>2019-10-26T14:13:30Z</time>
      </trkpt>
      <trkpt lat="44.58373" lon="5.69274">
        <ele>943.83</ele>
        <time>2019-10-26T14:14:03Z</time>
      </trkpt>
      <trkpt lat="44.58374" lon="5.69272">
        <ele>943.32</ele>
        <time>2019-10-26T14:14:25Z</time>
      </trkpt>
      <trkpt lat="44.58373" lon="5.69268">
        <ele>942.56</ele>
        <time>2019-10-26T14:14:51Z</time>
      </trkpt>
      <trkpt lat="44.58371" lon="5.6927">
        <ele>941.54</ele>
        <time>2019-10-26T14:15:16Z</time>
      </trkpt>
      <trkpt lat="44.58373" lon="5.6927">
        <ele>942.02</ele>
        <time>2019-10-26T14:15:45Z</time>
      </trkpt>
      <trkpt lat="44.58375" lon="5.69274">
        <ele>942.3</ele>
        <time>2019-10-26T14:15:58Z</time>
      </trkpt>
      <trkpt lat="44.58383" lon="5.69276">
        <ele>943.69</ele>
        <time>2019-10-26T14:16:04Z</time>
      </trkpt>
      <trkpt lat="44.58406" lon="5.69261">
        <ele>945.45</ele>
        <time>2019-10-26T14:16:23Z</time>
      </trkpt>
      <trkpt lat="44.5843" lon="5.69247">
        <ele>947.97</ele>
        <time>2019-10-26T14:16:41Z</time>
      </trkpt>
      <trkpt lat="44.58448" lon="5.69227">
        <ele>949.18</ele>
        <time>2019-10-26T14:16:57Z</time>
      </trkpt>
      <trkpt lat="44.58466" lon="5.6921">
        <ele>953.18</ele>
        <time>2019-10-26T14:17:15Z</time>
      </trkpt>
      <trkpt lat="44.58486" lon="5.69202">
        <ele>957.7</ele>
        <time>2019-10-26T14:17:31Z</time>
      </trkpt>
    </trkseg>
  </trk>
</gpx>